HIGHLAND LAKE: From 04/19/2019 00:00 to 06/20/2019 00:00

Date LAKE ELEVATION [FT] OBSERVED RELEASE PRECIPITATION INCREMENT [IN] PRECIPITATION TOTAL [IN] AIR TEMPERATURE [F] RELATIVE HUMIDITY [%]
06/18/2019 12:00 1294.81 30.0 0.00 -- 62.5 65.0
06/18/2019 11:00 1294.81 31.0 0.00 -- 62.3 59.0
06/18/2019 10:00 1294.81 31.0 0.00 -- 60.4 67.0
06/18/2019 09:00 1294.81 31.0 0.00 -- 59.0 77.0
06/18/2019 08:00 1294.81 30.0 0.00 -- 55.9 99.0
06/18/2019 07:00 1294.81 31.0 0.00 -- 52.3 100.0
06/18/2019 06:00 1294.81 31.0 0.00 -- 52.4 100.0
06/18/2019 05:00 1294.81 32.0 0.00 -- 53.9 100.0
06/18/2019 04:00 1294.81 32.0 0.00 -- 54.5 100.0
06/18/2019 03:00 1294.82 31.0 0.00 -- 55.2 100.0
06/18/2019 02:00 1294.82 31.0 0.00 -- 55.2 100.0
06/18/2019 01:00 1294.82 33.0 0.00 -- 55.6 100.0
06/18/2019 00:00 1294.82 33.0 0.00 -- 56.9 100.0
06/17/2019 23:00 1294.82 32.0 0.00 -- 57.5 99.0
06/17/2019 22:00 1294.82 32.0 0.00 -- 59.9 86.0
06/17/2019 21:00 1294.82 32.0 0.00 -- 66.4 69.0
06/17/2019 20:00 1294.82 32.0 0.00 -- 76.2 45.0
06/17/2019 19:00 1294.82 32.0 0.00 -- 75.2 38.0
06/17/2019 18:00 1294.82 33.0 0.00 -- 74.1 41.0
06/17/2019 17:00 1294.82 33.0 0.00 -- 73.8 40.0
06/17/2019 16:00 1294.81 33.0 0.00 -- 72.4 40.0
06/17/2019 15:00 1294.83 34.0 0.00 -- 70.9 46.0
06/17/2019 14:00 1294.83 34.0 0.00 -- 69.0 49.0
06/17/2019 13:00 1294.84 33.0 0.00 -- 66.9 48.0
06/17/2019 12:00 1294.84 34.0 0.00 -- 64.9 58.0
06/17/2019 11:00 1294.84 37.0 0.00 -- 62.7 69.0
06/17/2019 10:00 1294.83 35.0 0.01 -- 59.2 84.0
06/17/2019 09:00 1294.83 34.0 0.00 -- 54.6 100.0
06/17/2019 08:00 1294.83 34.0 0.00 -- 52.6 100.0
06/17/2019 07:00 1294.84 33.0 0.00 -- 52.1 100.0
06/17/2019 06:00 1294.83 35.0 0.00 -- 53.0 100.0
06/17/2019 05:00 1294.83 35.0 0.00 -- 54.5 100.0
06/17/2019 04:00 1294.83 35.0 0.00 -- 55.0 100.0
06/17/2019 03:00 1294.83 35.0 0.00 -- 57.9 100.0
06/17/2019 02:00 1294.83 34.0 0.00 -- 59.1 100.0
06/17/2019 01:00 1294.83 35.0 0.00 -- 60.1 100.0
06/17/2019 00:00 1294.83 35.0 0.00 0.01 59.7 100.0
06/16/2019 23:00 1294.83 34.0 0.00 -- 59.2 100.0
06/16/2019 22:00 1294.83 34.0 0.00 -- 59.9 100.0
06/16/2019 21:00 1294.83 34.0 0.01 -- 60.8 100.0
06/16/2019 20:00 1294.83 33.0 0.00 -- 61.3 100.0
06/16/2019 19:00 1294.83 33.0 0.00 -- 62.0 100.0
06/16/2019 18:00 1294.83 34.0 0.04 -- 62.3 100.0
06/16/2019 17:00 1294.82 34.0 0.05 -- 61.7 100.0
06/16/2019 16:00 1294.81 32.0 0.06 -- 61.9 100.0
06/16/2019 15:00 1294.81 31.0 0.08 -- 62.0 100.0
06/16/2019 14:00 1294.80 31.0 0.06 -- 62.2 100.0
06/16/2019 13:00 1294.80 29.0 0.05 -- 61.2 100.0
06/16/2019 12:00 1294.80 29.0 0.01 -- 61.0 100.0
06/16/2019 11:00 1294.80 29.0 0.00 -- 60.8 100.0
06/16/2019 10:00 1294.80 29.0 0.00 -- 60.0 100.0
06/16/2019 09:00 1294.79 28.0 0.00 -- 58.8 100.0
06/16/2019 08:00 1294.80 29.0 0.00 -- 58.4 100.0
06/16/2019 07:00 1294.80 29.0 0.00 -- 57.7 100.0
06/16/2019 06:00 1294.79 28.0 0.01 -- 57.3 100.0
06/16/2019 05:00 1294.80 29.0 0.02 -- 57.2 100.0
06/16/2019 04:00 1294.80 28.0 0.00 -- 59.4 77.0
06/16/2019 03:00 1294.80 29.0 0.00 -- 64.3 55.0
06/16/2019 02:00 1294.78 30.0 0.00 -- 65.6 49.0
06/16/2019 01:00 1294.79 26.0 0.00 -- 65.9 48.0
06/16/2019 00:00 1294.79 29.0 0.00 0.39 65.9 49.0
06/15/2019 23:00 1294.78 29.0 0.00 -- 66.7 48.0
06/15/2019 22:00 1294.81 28.0 0.00 -- 66.1 48.0
06/15/2019 21:00 1294.80 29.0 0.00 -- 67.8 46.0
06/15/2019 20:00 1294.80 30.0 0.00 -- 70.2 38.0
06/15/2019 19:00 1294.82 28.0 0.00 -- 71.8 34.0
06/15/2019 18:00 1294.79 29.0 0.00 -- 75.1 29.0
06/15/2019 17:00 1294.78 27.0 0.00 -- 74.7 29.0
06/15/2019 16:00 1294.78 28.0 0.00 -- 74.2 27.0
06/15/2019 15:00 1294.79 26.0 0.00 -- 72.9 39.0
06/15/2019 14:00 1294.77 28.0 0.00 -- 70.2 38.0
06/15/2019 13:00 1294.78 26.0 0.00 -- 68.2 41.0
06/15/2019 12:00 1294.78 28.0 0.00 -- 65.6 48.0
06/15/2019 11:00 1294.81 30.0 0.00 -- 62.0 55.0
06/15/2019 10:00 1294.80 31.0 0.00 -- 61.1 54.0
06/15/2019 09:00 1294.82 29.0 0.00 -- 53.7 74.0
06/15/2019 08:00 1294.82 33.0 0.00 -- 49.1 99.0
06/15/2019 07:00 1294.82 32.0 0.00 -- 45.0 100.0
06/15/2019 06:00 1294.82 32.0 0.00 -- 44.5 100.0
06/15/2019 05:00 1294.82 33.0 0.00 -- 44.5 99.0
06/15/2019 04:00 1294.83 32.0 0.00 -- 45.3 99.0
06/15/2019 03:00 1294.83 33.0 0.00 -- 47.2 98.0
06/15/2019 02:00 1294.83 33.0 0.00 -- 49.8 84.0
06/15/2019 01:00 1294.83 34.0 0.00 -- 47.4 99.0
06/15/2019 00:00 1294.83 34.0 0.00 0.00 50.1 92.0
06/14/2019 23:00 1294.83 35.0 0.00 -- 53.0 78.0
06/14/2019 22:00 1294.83 34.0 0.00 -- 54.1 73.0
06/14/2019 21:00 1294.83 34.0 0.00 -- 54.0 73.0
06/14/2019 20:00 1294.82 35.0 0.00 -- 53.9 71.0
06/14/2019 19:00 1294.80 35.0 0.00 -- 54.6 70.0
06/14/2019 18:00 1294.82 29.0 0.00 -- 57.2 64.0
06/14/2019 17:00 1294.83 34.0 0.00 -- 58.9 66.0
06/14/2019 16:00 1294.83 31.0 0.03 -- 55.7 88.0
06/14/2019 15:00 1294.82 35.0 0.01 -- 58.1 78.0
06/14/2019 14:00 1294.80 35.0 0.00 -- 59.2 69.0
06/14/2019 13:00 1294.83 31.0 0.00 -- 60.5 59.0
06/14/2019 12:00 1294.82 33.0 0.00 -- 59.2 70.0
06/14/2019 11:00 1294.80 31.0 0.00 -- 57.2 79.0
06/14/2019 10:00 1294.82 31.0 0.00 -- 53.3 99.0
06/14/2019 09:00 1294.82 31.0 0.00 -- 50.6 100.0
06/14/2019 08:00 1294.83 33.0 0.00 -- 49.4 100.0
06/14/2019 07:00 1294.82 34.0 0.00 -- 48.5 100.0
06/14/2019 06:00 1294.83 32.0 0.00 -- 47.7 100.0
06/14/2019 05:00 1294.83 32.0 0.00 -- 47.2 100.0
06/14/2019 04:00 1294.84 34.0 0.00 -- 46.7 100.0
06/14/2019 03:00 1294.84 35.0 0.00 -- 46.3 100.0
06/14/2019 02:00 1294.83 37.0 0.00 -- 45.9 100.0
06/14/2019 01:00 1294.85 -- 0.00 -- 46.7 100.0
06/14/2019 00:00 1294.85 37.0 0.00 0.04 47.9 100.0
06/13/2019 23:00 1294.85 37.0 0.00 -- 47.4 100.0
06/13/2019 22:00 1294.85 38.0 0.00 -- 47.7 100.0
06/13/2019 21:00 1294.86 38.0 0.01 -- 47.4 100.0
06/13/2019 20:00 1294.86 39.0 0.00 -- 47.5 100.0
06/13/2019 19:00 1294.88 40.0 0.00 -- 47.4 100.0
06/13/2019 18:00 1294.88 42.0 0.01 -- 47.0 100.0
06/13/2019 17:00 1294.89 43.0 0.03 -- 47.0 100.0
06/13/2019 16:00 1294.89 43.0 0.01 -- 46.4 100.0
06/13/2019 15:00 1294.88 43.0 0.00 -- 49.1 99.0
06/13/2019 14:00 1294.88 42.0 0.06 -- 50.0 99.0
06/13/2019 13:00 1294.86 42.0 0.01 -- 50.8 91.0
06/13/2019 12:00 1294.86 39.0 0.00 -- 50.4 88.0
06/13/2019 11:00 1294.85 39.0 0.00 -- 52.3 70.0
06/13/2019 10:00 1294.86 38.0 0.00 -- 53.6 73.0
06/13/2019 09:00 1294.85 39.0 0.00 -- 52.6 74.0
06/13/2019 08:00 1294.85 40.0 0.00 -- 51.8 80.0
06/13/2019 07:00 1294.86 39.0 0.00 -- 49.4 92.0
06/13/2019 06:00 1294.87 39.0 0.00 -- 49.3 88.0
06/13/2019 05:00 1294.86 40.0 0.00 -- 49.6 82.0
06/13/2019 04:00 1294.86 40.0 0.00 -- 50.3 84.0
06/13/2019 03:00 1294.85 39.0 0.00 -- 52.5 75.0
06/13/2019 02:00 1294.86 40.0 0.00 -- 53.4 72.0
06/13/2019 01:00 1294.86 40.0 0.00 -- 55.3 64.0
06/13/2019 00:00 1294.86 40.0 0.00 0.13 56.4 64.0
06/12/2019 23:00 1294.87 40.0 0.00 -- 56.3 68.0
06/12/2019 22:00 1294.88 42.0 0.00 -- 58.5 58.0
06/12/2019 21:00 1294.88 43.0 0.00 -- 65.1 45.0
06/12/2019 20:00 1294.86 42.0 0.00 -- 72.8 33.0
06/12/2019 19:00 1294.87 41.0 0.00 -- 72.1 35.0
06/12/2019 18:00 1294.86 42.0 0.00 -- 73.6 28.0
06/12/2019 17:00 1294.87 42.0 0.00 -- 72.2 28.0
06/12/2019 16:00 1294.87 43.0 0.00 -- 72.4 31.0
06/12/2019 15:00 1294.88 42.0 0.00 -- 69.9 34.0
06/12/2019 14:00 1294.88 43.0 0.00 -- 67.2 31.0
06/12/2019 13:00 1294.90 45.0 0.00 -- 66.2 40.0
06/12/2019 12:00 1294.89 46.0 0.00 -- 64.1 35.0
06/12/2019 11:00 1294.90 47.0 0.00 -- 62.3 42.0
06/12/2019 10:00 1294.91 48.0 0.00 -- 60.2 48.0
06/12/2019 09:00 1294.90 47.0 0.00 -- 54.7 72.0
06/12/2019 08:00 1294.89 47.0 0.00 -- 45.7 99.0
06/12/2019 07:00 1294.90 46.0 0.00 -- 42.6 99.0
06/12/2019 06:00 1294.90 46.0 0.00 -- 43.1 99.0
06/12/2019 05:00 1294.90 47.0 0.00 -- 43.0 99.0
06/12/2019 04:00 1294.90 47.0 0.00 -- 43.8 99.0
06/12/2019 03:00 1294.90 46.0 0.00 -- 45.0 99.0
06/12/2019 02:00 1294.91 47.0 0.00 -- 46.5 93.0
06/12/2019 01:00 1294.90 48.0 0.00 -- 49.1 84.0
06/12/2019 00:00 1294.91 48.0 0.00 0.00 52.6 72.0
06/11/2019 23:00 1294.91 47.0 0.00 -- 56.6 64.0
06/11/2019 22:00 1294.92 48.0 0.00 -- 59.2 60.0
06/11/2019 21:00 1294.92 51.0 0.00 -- 62.2 54.0
06/11/2019 20:00 1294.93 52.0 0.00 -- 65.4 45.0
06/11/2019 19:00 1294.94 56.0 0.00 -- 66.3 47.0
06/11/2019 18:00 1294.92 59.0 0.00 -- 67.6 54.0
06/11/2019 17:00 1294.90 53.0 0.00 -- 67.9 52.0
06/11/2019 16:00 1294.93 53.0 0.00 -- 64.9 58.0
06/11/2019 15:00 1294.92 52.0 0.00 -- 63.4 65.0
06/11/2019 14:00 1294.91 54.0 0.00 -- 62.2 73.0
06/11/2019 13:00 1294.91 49.0 0.00 -- 61.4 78.0
06/11/2019 12:00 1294.92 46.0 0.00 -- 59.7 96.0
06/11/2019 11:00 1294.90 49.0 0.01 -- 61.0 100.0
06/11/2019 10:00 1294.90 48.0 0.00 -- 64.7 100.0
06/11/2019 09:00 1294.90 45.0 0.01 -- 64.6 100.0
06/11/2019 08:00 1294.90 44.0 0.05 -- 63.6 100.0
06/11/2019 07:00 1294.89 46.0 0.19 -- 62.9 100.0
06/11/2019 06:00 1294.88 45.0 0.08 -- 62.1 100.0
06/11/2019 05:00 1294.86 41.0 0.03 -- 62.0 100.0
06/11/2019 04:00 1294.86 41.0 0.04 -- 61.9 100.0
06/11/2019 03:00 1294.86 40.0 0.03 -- 61.9 100.0
06/11/2019 02:00 1294.86 40.0 0.09 -- 61.5 100.0
06/11/2019 01:00 1294.86 38.0 0.09 -- 61.8 100.0
06/11/2019 00:00 1294.85 39.0 0.00 0.62 62.5 97.0
06/10/2019 23:00 1294.85 38.0 0.00 -- 65.1 76.0
06/10/2019 22:00 1294.85 37.0 0.00 -- 66.5 69.0
06/10/2019 21:00 1294.86 38.0 0.00 -- 67.3 55.0
06/10/2019 20:00 1294.85 38.0 0.00 -- 69.4 35.0
06/10/2019 19:00 1294.85 39.0 0.00 -- 72.5 36.0
06/10/2019 18:00 1294.84 37.0 0.00 -- 76.1 39.0
06/10/2019 17:00 1294.87 37.0 0.00 -- 75.8 38.0
06/10/2019 16:00 1294.85 39.0 0.00 -- 77.7 34.0
06/10/2019 15:00 1294.86 39.0 0.00 -- 76.7 32.0
06/10/2019 14:00 1294.86 37.0 0.00 -- 74.1 34.0
06/10/2019 13:00 1294.88 39.0 0.00 -- 71.4 36.0
06/10/2019 12:00 1294.87 40.0 0.00 -- 71.1 36.0
06/10/2019 11:00 1294.87 43.0 0.00 -- 67.1 37.0
06/10/2019 10:00 1294.86 42.0 0.00 -- 63.7 38.0
06/10/2019 09:00 1294.86 41.0 0.00 -- 59.5 50.0
06/10/2019 08:00 1294.88 40.0 0.00 -- 51.5 84.0
06/10/2019 07:00 1294.89 43.0 0.00 -- 49.0 86.0
06/10/2019 06:00 1294.89 45.0 0.00 -- 49.7 84.0
06/10/2019 05:00 1294.89 45.0 0.00 -- 51.5 73.0
06/10/2019 04:00 1294.89 45.0 0.00 -- 52.7 71.0
06/10/2019 03:00 1294.90 45.0 0.00 -- 54.2 67.0
06/10/2019 02:00 1294.89 45.0 0.00 -- 55.7 69.0
06/10/2019 01:00 1294.89 45.0 0.00 -- 57.4 66.0
06/10/2019 00:00 1294.90 46.0 0.00 0.00 59.2 62.0
06/09/2019 23:00 1294.90 46.0 0.00 -- 58.7 63.0
06/09/2019 22:00 1294.91 49.0 0.00 -- 62.1 61.0
06/09/2019 21:00 1294.91 50.0 0.00 -- 67.9 48.0
06/09/2019 20:00 1294.91 50.0 0.00 -- 74.8 38.0
06/09/2019 19:00 1294.92 48.0 0.00 -- 79.4 28.0
06/09/2019 18:00 1294.92 50.0 0.00 -- 79.8 21.0
06/09/2019 17:00 1294.92 50.0 0.00 -- 79.9 17.0
06/09/2019 16:00 1294.92 50.0 0.00 -- 79.0 18.0
06/09/2019 15:00 1294.93 52.0 0.00 -- 76.6 23.0
06/09/2019 14:00 1294.93 54.0 0.00 -- 73.7 17.0
06/09/2019 13:00 1294.93 54.0 0.00 -- 72.7 30.0
06/09/2019 12:00 1294.94 54.0 0.00 -- 69.4 26.0
06/09/2019 11:00 1294.95 56.0 0.00 -- 65.8 39.0
06/09/2019 10:00 1294.95 57.0 0.00 -- 63.3 44.0
06/09/2019 09:00 1294.95 57.0 0.00 -- 54.2 73.0
06/09/2019 08:00 1294.95 57.0 0.00 -- 48.1 96.0
06/09/2019 07:00 1294.95 58.0 0.00 -- 43.2 99.0
06/09/2019 06:00 1294.96 57.0 0.00 -- 44.0 99.0
06/09/2019 05:00 1294.96 58.0 0.00 -- 43.4 99.0
06/09/2019 04:00 1294.97 59.0 0.00 -- 44.7 99.0
06/09/2019 03:00 1294.97 60.0 0.00 -- 46.7 99.0
06/09/2019 02:00 1294.97 60.0 0.00 -- 47.4 98.0
06/09/2019 01:00 1294.96 62.0 0.00 -- 47.9 89.0
06/09/2019 00:00 1294.98 62.0 0.00 0.00 50.8 84.0
06/08/2019 23:00 1294.98 63.0 0.00 -- 52.4 79.0
06/08/2019 22:00 1294.99 62.0 0.00 -- 57.3 64.0
06/08/2019 21:00 1294.99 64.0 0.00 -- 65.8 45.0
06/08/2019 20:00 1294.99 64.0 0.00 -- 76.1 22.0
06/08/2019 19:00 1295.00 66.0 0.00 -- 76.8 21.0
06/08/2019 18:00 1295.00 66.0 0.00 -- 75.7 21.0
06/08/2019 17:00 1295.02 68.0 0.00 -- 74.0 18.0
06/08/2019 16:00 1295.01 69.0 0.00 -- 73.1 22.0
06/08/2019 15:00 1295.00 74.0 0.00 -- 70.8 26.0
06/08/2019 14:00 1295.03 71.0 0.00 -- 70.2 31.0
06/08/2019 13:00 1295.02 73.0 0.00 -- 68.0 26.0
06/08/2019 12:00 1295.02 71.0 0.00 -- 66.4 29.0
06/08/2019 11:00 1295.03 75.0 0.00 -- 65.2 34.0
06/08/2019 10:00 1295.03 75.0 0.00 -- 63.4 50.0
06/08/2019 09:00 1295.03 77.0 0.00 -- 55.4 71.0
06/08/2019 08:00 1295.03 76.0 0.00 -- 49.9 100.0
06/08/2019 07:00 1295.03 75.0 0.00 -- 48.1 100.0
06/08/2019 06:00 1295.04 76.0 0.00 -- 48.2 100.0
06/08/2019 05:00 1295.04 78.0 0.00 -- 48.2 100.0
06/08/2019 04:00 1295.04 78.0 0.00 -- 49.0 100.0
06/08/2019 03:00 1295.05 78.0 0.00 -- 52.6 100.0
06/08/2019 02:00 1295.05 80.0 0.00 -- 53.7 99.0
06/08/2019 01:00 1295.05 81.0 0.00 -- 54.6 99.0
06/08/2019 00:00 1295.06 82.0 0.00 0.00 55.6 88.0
06/07/2019 23:00 1295.06 81.0 0.00 -- 55.9 92.0
06/07/2019 22:00 1295.07 83.0 0.00 -- 60.0 80.0
06/07/2019 21:00 1295.07 84.0 0.00 -- 67.0 60.0
06/07/2019 20:00 1295.07 85.0 0.00 -- 76.6 30.0
06/07/2019 19:00 1295.07 85.0 0.00 -- 77.0 30.0
06/07/2019 18:00 1295.08 87.0 0.00 -- 75.7 27.0
06/07/2019 17:00 1295.08 88.0 0.00 -- 76.0 31.0
06/07/2019 16:00 1295.08 87.0 0.00 -- 73.0 29.0
06/07/2019 15:00 1295.09 85.0 0.00 -- 72.4 31.0
06/07/2019 14:00 1295.09 89.0 0.00 -- 70.8 35.0
06/07/2019 13:00 1295.10 87.0 0.00 -- 69.7 32.0
06/07/2019 12:00 1295.10 91.0 0.00 -- 68.3 35.0
06/07/2019 11:00 1295.11 92.0 0.00 -- 66.3 42.0
06/07/2019 10:00 1295.10 92.0 0.00 -- 64.2 44.0
06/07/2019 09:00 1295.10 92.0 0.00 -- 52.7 100.0
06/07/2019 08:00 1295.10 92.0 0.00 -- 46.4 100.0
06/07/2019 07:00 1295.11 92.0 0.00 -- 44.6 100.0
06/07/2019 06:00 1295.11 93.0 0.00 -- 44.2 100.0
06/07/2019 05:00 1295.11 94.0 0.00 -- 45.0 100.0
06/07/2019 04:00 1295.11 94.0 0.00 -- 46.3 100.0
06/07/2019 03:00 1295.11 94.0 0.00 -- 49.3 100.0
06/07/2019 02:00 1295.11 95.0 0.00 -- 49.6 100.0
06/07/2019 01:00 1295.11 96.0 0.00 -- 51.4 100.0
06/07/2019 00:00 1295.11 95.0 0.00 0.00 52.6 100.0
06/06/2019 23:00 1295.11 94.0 0.00 -- 55.0 99.0
06/06/2019 22:00 1295.11 95.0 0.00 -- 58.0 84.0
06/06/2019 21:00 1295.10 95.0 0.00 -- 65.0 75.0
06/06/2019 20:00 1295.10 95.0 0.00 -- 69.6 54.0
06/06/2019 19:00 1295.11 93.0 0.00 -- 72.1 44.0
06/06/2019 18:00 1295.11 94.0 0.00 -- 73.0 38.0
06/06/2019 17:00 1295.10 94.0 0.00 -- 71.6 42.0
06/06/2019 16:00 1295.10 92.0 0.00 -- 70.2 45.0
06/06/2019 15:00 1295.10 90.0 0.00 -- 68.3 54.0
06/06/2019 14:00 1295.10 93.0 0.00 -- 66.9 63.0
06/06/2019 13:00 1295.09 88.0 0.00 -- 66.0 72.0
06/06/2019 12:00 1295.09 87.0 0.00 -- 62.6 98.0
06/06/2019 11:00 1295.09 85.0 0.00 -- 61.7 90.0
06/06/2019 10:00 1295.04 85.0 0.00 -- 60.7 100.0
06/06/2019 09:00 1295.03 82.0 0.00 -- 59.7 100.0
06/06/2019 08:00 1295.02 74.0 0.01 -- 61.2 100.0
06/06/2019 07:00 1295.00 71.0 0.00 -- 61.5 100.0
06/06/2019 06:00 1295.00 64.0 0.28 -- 61.5 100.0
06/06/2019 05:00 1294.96 63.0 0.10 -- 59.7 100.0
06/06/2019 04:00 1294.95 57.0 0.20 -- 59.2 100.0
06/06/2019 03:00 1294.93 55.0 0.59 -- 58.8 100.0
06/06/2019 02:00 1294.90 50.0 0.14 -- 59.0 100.0
06/06/2019 01:00 1294.88 45.0 0.11 -- 58.7 100.0
06/06/2019 00:00 1294.87 46.0 0.22 1.43 60.1 100.0
06/05/2019 23:00 1294.85 -- 0.02 -- 61.1 100.0
06/05/2019 22:00 1294.86 38.0 0.03 -- 61.4 100.0
06/05/2019 21:00 1294.85 38.0 0.00 -- 64.1 88.0
06/05/2019 20:00 1294.86 38.0 0.00 -- 65.8 79.0
06/05/2019 19:00 1294.85 39.0 0.00 -- 68.8 72.0
06/05/2019 18:00 1294.84 39.0 0.00 -- 70.4 63.0
06/05/2019 17:00 1294.85 38.0 0.00 -- 69.5 56.0
06/05/2019 16:00 1294.85 36.0 0.00 -- 69.7 56.0
06/05/2019 15:00 1294.85 35.0 0.00 -- 71.7 50.0
06/05/2019 14:00 1294.86 36.0 0.00 -- 69.9 52.0
06/05/2019 13:00 1294.83 39.0 0.00 -- 67.7 56.0
06/05/2019 12:00 1294.83 38.0 0.00 -- 67.2 55.0
06/05/2019 11:00 1294.85 37.0 0.00 -- 63.3 60.0
06/05/2019 10:00 1294.85 37.0 0.00 -- 58.4 67.0
06/05/2019 09:00 1294.86 38.0 0.00 -- 54.9 72.0
06/05/2019 08:00 1294.85 36.0 0.00 -- 53.4 71.0
06/05/2019 07:00 1294.85 38.0 0.00 -- 51.4 75.0
06/05/2019 06:00 1294.85 37.0 0.00 -- 48.9 82.0
06/05/2019 05:00 1294.85 37.0 0.00 -- 45.9 100.0
06/05/2019 04:00 1294.87 38.0 0.01 -- 46.0 100.0
06/05/2019 03:00 1294.86 40.0 0.01 -- 46.0 100.0
06/05/2019 02:00 1294.86 40.0 0.01 -- 46.1 99.0
06/05/2019 01:00 1294.87 38.0 0.00 -- 46.8 98.0
06/05/2019 00:00 1294.86 40.0 0.00 0.30 49.2 70.0
06/04/2019 23:00 1294.87 40.0 0.00 -- 49.0 69.0
06/04/2019 22:00 1294.88 41.0 0.00 -- 50.9 61.0
06/04/2019 21:00 1294.88 41.0 0.00 -- 52.5 52.0
06/04/2019 20:00 1294.87 42.0 0.00 -- 54.8 45.0
06/04/2019 19:00 1294.88 41.0 0.00 -- 57.6 36.0
06/04/2019 18:00 1294.87 41.0 0.00 -- 58.0 37.0
06/04/2019 17:00 1294.87 43.0 0.00 -- 58.5 39.0
06/04/2019 16:00 1294.86 46.0 0.00 -- 60.1 33.0
06/04/2019 15:00 1294.88 42.0 0.00 -- 58.3 33.0
06/04/2019 14:00 1294.87 43.0 0.00 -- 56.9 34.0
06/04/2019 13:00 1294.89 42.0 0.00 -- 54.8 40.0
06/04/2019 12:00 1294.89 43.0 0.00 -- 53.2 45.0
06/04/2019 11:00 1294.89 45.0 0.00 -- 53.5 48.0
06/04/2019 10:00 1294.89 45.0 0.00 -- 51.0 55.0
06/04/2019 09:00 1294.88 45.0 0.00 -- 46.5 67.0
06/04/2019 08:00 1294.89 44.0 0.00 -- 39.2 97.0
06/04/2019 07:00 1294.89 45.0 0.00 -- 35.4 99.0
06/04/2019 06:00 1294.89 45.0 0.00 -- 35.0 99.0
06/04/2019 05:00 1294.89 45.0 0.00 -- 35.6 99.0
06/04/2019 04:00 1294.89 46.0 0.00 -- 36.4 99.0
06/04/2019 03:00 1294.89 46.0 0.00 -- 37.5 97.0
06/04/2019 02:00 1294.89 45.0 0.00 -- 39.0 96.0
06/04/2019 01:00 1294.89 44.0 0.00 -- 41.0 88.0
06/04/2019 00:00 1294.90 45.0 0.00 0.00 43.9 78.0
06/03/2019 23:00 1294.89 46.0 0.00 -- 47.2 67.0
06/03/2019 22:00 1294.89 46.0 0.00 -- 48.5 62.0
06/03/2019 21:00 1294.91 46.0 0.00 -- 49.9 57.0
06/03/2019 20:00 1294.91 48.0 0.00 -- 51.5 50.0
06/03/2019 19:00 1294.93 47.0 0.00 -- 51.7 49.0
06/03/2019 18:00 1294.92 46.0 0.00 -- 52.9 43.0
06/03/2019 17:00 1294.89 48.0 0.00 -- 54.0 40.0
06/03/2019 16:00 1294.89 46.0 0.00 -- 56.0 35.0
06/03/2019 15:00 1294.90 40.0 0.00 -- 57.0 33.0
06/03/2019 14:00 1294.91 46.0 0.00 -- 53.4 47.0
06/03/2019 13:00 1294.89 45.0 0.00 -- 55.3 33.0
06/03/2019 12:00 1294.86 43.0 0.00 -- 55.0 32.0
06/03/2019 11:00 1294.89 41.0 0.00 -- 54.1 34.0
06/03/2019 10:00 1294.88 43.0 0.00 -- 51.7 46.0
06/03/2019 09:00 1294.89 45.0 0.00 -- 49.0 55.0
06/03/2019 08:00 1294.89 45.0 0.00 -- 46.4 65.0
06/03/2019 07:00 1294.89 44.0 0.00 -- 41.0 93.0
06/03/2019 06:00 1294.89 45.0 0.00 -- 46.0 61.0
06/03/2019 05:00 1294.89 45.0 0.01 -- 44.6 86.0
06/03/2019 04:00 1294.89 46.0 0.00 -- 49.4 68.0
06/03/2019 03:00 1294.89 45.0 0.00 -- 51.4 61.0
06/03/2019 02:00 1294.87 45.0 0.00 -- 53.1 69.0
06/03/2019 01:00 1294.87 41.0 0.00 -- 54.9 93.0
06/03/2019 00:00 1294.88 40.0 0.00 0.01 56.9 100.0
06/02/2019 23:00 1294.86 40.0 0.00 -- 58.0 100.0
06/02/2019 22:00 1294.86 41.0 0.00 -- 57.7 100.0
06/02/2019 21:00 1294.87 40.0 0.00 -- 58.7 100.0
06/02/2019 20:00 1294.86 38.0 0.00 -- 61.4 100.0
06/02/2019 19:00 1294.88 40.0 0.00 -- 61.4 99.0
06/02/2019 18:00 1294.85 38.0 0.42 -- 60.0 100.0
06/02/2019 17:00 1294.84 45.0 0.09 -- 60.3 100.0
06/02/2019 16:00 1294.83 30.0 0.00 -- 67.5 69.0
06/02/2019 15:00 1294.81 34.0 0.00 -- 66.8 72.0
06/02/2019 14:00 1294.81 29.0 0.00 -- 63.4 76.0
06/02/2019 13:00 1294.81 31.0 0.00 -- 55.8 99.0
06/02/2019 12:00 1294.81 31.0 0.00 -- 56.1 99.0
06/02/2019 11:00 1294.81 31.0 0.00 -- 55.4 99.0
06/02/2019 10:00 1294.81 30.0 0.00 -- 55.2 99.0
06/02/2019 09:00 1294.81 31.0 0.00 -- 53.4 100.0
06/02/2019 08:00 1294.81 31.0 0.00 -- 52.2 100.0
06/02/2019 07:00 1294.82 31.0 0.00 -- 52.0 100.0
06/02/2019 06:00 1294.82 31.0 0.00 -- 51.8 100.0
06/02/2019 05:00 1294.82 31.0 0.00 -- 52.3 100.0
06/02/2019 04:00 1294.82 32.0 0.00 -- 52.1 100.0
06/02/2019 03:00 1294.83 32.0 0.00 -- 50.9 99.0
06/02/2019 02:00 1294.82 34.0 0.00 -- 51.3 99.0
06/02/2019 01:00 1294.82 33.0 0.00 -- 51.0 99.0
06/02/2019 00:00 1294.82 33.0 0.00 0.51 53.0 94.0
06/01/2019 23:00 1294.83 33.0 0.00 -- 55.6 84.0
06/01/2019 22:00 1294.83 31.0 0.00 -- 58.5 80.0
06/01/2019 21:00 1294.83 34.0 0.00 -- 62.8 70.0
06/01/2019 20:00 1294.82 33.0 0.00 -- 65.8 58.0
06/01/2019 19:00 1294.83 32.0 0.00 -- 67.2 58.0
06/01/2019 18:00 1294.83 34.0 0.00 -- 68.8 53.0
06/01/2019 17:00 1294.83 35.0 0.00 -- 70.5 48.0
06/01/2019 16:00 1294.82 34.0 0.00 -- 67.5 47.0
06/01/2019 15:00 1294.84 33.0 0.00 -- 68.0 38.0
06/01/2019 14:00 1294.82 34.0 0.00 -- 63.9 42.0
06/01/2019 13:00 1294.84 33.0 0.00 -- 63.3 50.0
06/01/2019 12:00 1294.84 34.0 0.00 -- 60.4 52.0
06/01/2019 11:00 1294.85 35.0 0.00 -- 54.0 76.0
06/01/2019 10:00 1294.84 37.0 0.00 -- 52.0 86.0
06/01/2019 09:00 1294.84 37.0 0.00 -- 49.7 99.0
06/01/2019 08:00 1294.84 36.0 0.00 -- 46.3 100.0
06/01/2019 07:00 1294.85 37.0 0.00 -- 43.4 100.0
06/01/2019 06:00 1294.85 37.0 0.00 -- 43.4 100.0
06/01/2019 05:00 1294.84 37.0 0.00 -- 44.4 100.0
06/01/2019 04:00 1294.85 38.0 0.00 -- 46.2 100.0
06/01/2019 03:00 1294.85 37.0 0.00 -- 48.3 100.0
06/01/2019 02:00 1294.85 37.0 0.00 -- 49.4 100.0
06/01/2019 01:00 1294.86 36.0 0.00 -- 51.2 100.0
06/01/2019 00:00 1294.85 38.0 0.00 0.00 52.2 99.0
05/31/2019 23:00 1294.85 38.0 0.00 -- 51.9 100.0
05/31/2019 22:00 1294.85 38.0 0.00 -- 54.3 96.0
05/31/2019 21:00 1294.85 38.0 0.00 -- 58.8 75.0
05/31/2019 20:00 1294.86 38.0 0.00 -- 66.0 53.0
05/31/2019 19:00 1294.86 38.0 0.00 -- 67.5 44.0
05/31/2019 18:00 1294.86 40.0 0.00 -- 68.0 39.0
05/31/2019 17:00 1294.86 39.0 0.00 -- 67.5 42.0
05/31/2019 16:00 1294.87 40.0 0.00 -- 66.8 43.0
05/31/2019 15:00 1294.85 39.0 0.00 -- 64.8 46.0
05/31/2019 14:00 1294.87 43.0 0.00 -- 63.7 51.0
05/31/2019 13:00 1294.88 42.0 0.00 -- 62.0 54.0
05/31/2019 12:00 1294.87 42.0 0.00 -- 60.3 57.0
05/31/2019 11:00 1294.88 42.0 0.00 -- 58.7 59.0
05/31/2019 10:00 1294.89 43.0 0.00 -- 57.9 71.0
05/31/2019 09:00 1294.89 44.0 0.00 -- 56.0 95.0
05/31/2019 08:00 1294.88 44.0 0.00 -- 56.4 100.0
05/31/2019 07:00 1294.87 43.0 0.00 -- 55.5 100.0
05/31/2019 06:00 1294.87 41.0 0.00 -- 55.4 100.0
05/31/2019 05:00 1294.87 40.0 0.00 -- 56.3 100.0
05/31/2019 04:00 1294.88 40.0 0.00 -- 56.5 100.0
05/31/2019 03:00 1294.87 41.0 0.00 -- 56.3 100.0
05/31/2019 02:00 1294.87 42.0 0.01 -- 56.3 100.0
05/31/2019 01:00 1294.87 41.0 0.03 -- 56.5 100.0
05/31/2019 00:00 1294.85 41.0 0.00 0.04 56.8 100.0
05/30/2019 23:00 1294.86 37.0 0.00 -- 57.5 100.0
05/30/2019 22:00 1294.84 38.0 0.00 -- 58.2 95.0
05/30/2019 21:00 1294.86 38.0 0.00 -- 59.7 87.0
05/30/2019 20:00 1294.86 38.0 0.00 -- 61.6 74.0
05/30/2019 19:00 1294.85 38.0 0.00 -- 64.8 65.0
05/30/2019 18:00 1294.86 38.0 0.00 -- 65.0 62.0
05/30/2019 17:00 1294.86 38.0 0.00 -- 64.3 62.0
05/30/2019 16:00 1294.86 38.0 0.00 -- 65.4 58.0
05/30/2019 15:00 1294.85 39.0 0.00 -- 63.3 60.0
05/30/2019 14:00 1294.86 38.0 0.00 -- 61.0 67.0
05/30/2019 13:00 1294.87 38.0 0.00 -- 59.0 74.0
05/30/2019 12:00 1294.86 39.0 0.00 -- 56.4 85.0
05/30/2019 11:00 1294.87 38.0 0.00 -- 52.9 99.0
05/30/2019 10:00 1294.86 41.0 0.00 -- 50.4 100.0
05/30/2019 09:00 1294.86 40.0 0.00 -- 48.7 100.0
05/30/2019 08:00 1294.86 40.0 0.00 -- 47.9 100.0
05/30/2019 07:00 1294.87 40.0 0.00 -- 47.3 100.0
05/30/2019 06:00 1294.87 39.0 0.00 -- 47.0 100.0
05/30/2019 05:00 1294.86 40.0 0.00 -- 46.7 100.0
05/30/2019 04:00 1294.86 40.0 0.00 -- 46.5 100.0
05/30/2019 03:00 1294.86 39.0 0.00 -- 46.8 100.0
05/30/2019 02:00 1294.87 39.0 0.00 -- 46.9 100.0
05/30/2019 01:00 1294.86 40.0 0.00 -- 46.7 100.0
05/30/2019 00:00 1294.86 38.0 0.00 0.00 46.9 100.0
05/29/2019 23:00 1294.86 40.0 0.00 -- 47.1 99.0
05/29/2019 22:00 1294.86 39.0 0.00 -- 47.6 99.0
05/29/2019 21:00 1294.85 40.0 0.00 -- 48.5 96.0
05/29/2019 20:00 1294.86 38.0 0.00 -- 49.7 95.0
05/29/2019 19:00 1294.86 38.0 0.00 -- 50.0 91.0
05/29/2019 18:00 1294.87 38.0 0.00 -- 50.5 85.0
05/29/2019 17:00 1294.85 40.0 0.00 -- 50.0 86.0
05/29/2019 16:00 1294.84 39.0 0.00 -- 49.5 90.0
05/29/2019 15:00 1294.85 38.0 0.00 -- 49.5 86.0
05/29/2019 14:00 1294.84 38.0 0.00 -- 46.9 95.0
05/29/2019 13:00 1294.85 35.0 0.00 -- 46.3 99.0
05/29/2019 12:00 1294.86 36.0 0.00 -- 46.5 95.0
05/29/2019 11:00 1294.84 38.0 0.00 -- 44.5 99.0
05/29/2019 10:00 1294.84 37.0 0.00 -- 42.9 100.0
05/29/2019 09:00 1294.85 35.0 0.00 -- 41.4 100.0
05/29/2019 08:00 1294.85 36.0 0.00 -- 40.5 100.0
05/29/2019 07:00 1294.84 37.0 0.01 -- 39.8 100.0
05/29/2019 06:00 1294.84 35.0 0.00 -- 39.6 100.0
05/29/2019 05:00 1294.84 37.0 0.00 -- 39.5 100.0
05/29/2019 04:00 1294.84 34.0 0.00 -- 39.6 100.0
05/29/2019 03:00 1294.84 35.0 0.01 -- 39.2 100.0
05/29/2019 02:00 1294.83 34.0 0.00 -- 38.8 100.0
05/29/2019 01:00 1294.84 37.0 0.01 -- 39.3 100.0
05/29/2019 00:00 1294.84 35.0 0.01 0.03 39.3 100.0
05/28/2019 23:00 1294.84 36.0 0.01 -- 39.5 100.0
05/28/2019 22:00 1294.82 33.0 0.04 -- 39.3 100.0
05/28/2019 21:00 1294.83 32.0 0.03 -- 39.7 100.0
05/28/2019 20:00 1294.81 31.0 0.05 -- 39.7 100.0
05/28/2019 19:00 1294.82 31.0 0.12 -- 40.3 100.0
05/28/2019 18:00 1294.80 30.0 0.04 -- 40.7 100.0
05/28/2019 17:00 1294.80 29.0 0.06 -- 41.2 100.0
05/28/2019 16:00 1294.79 27.0 0.04 -- 41.3 100.0
05/28/2019 15:00 1294.78 27.0 0.13 -- 42.3 100.0
05/28/2019 14:00 1294.77 26.0 0.07 -- 43.3 99.0
05/28/2019 13:00 1294.76 25.0 0.00 -- 46.8 71.0
05/28/2019 12:00 1294.76 24.0 0.00 -- 49.0 53.0
05/28/2019 11:00 1294.77 23.0 0.00 -- 50.0 56.0
05/28/2019 10:00 1294.75 23.0 0.00 -- 49.8 58.0
05/28/2019 09:00 1294.77 23.0 0.00 -- 48.1 67.0
05/28/2019 08:00 1294.77 23.0 0.00 -- 48.8 70.0
05/28/2019 07:00 1294.77 24.0 0.00 -- 45.9 89.0
05/28/2019 06:00 1294.77 24.0 0.00 -- 45.1 88.0
05/28/2019 05:00 1294.76 24.0 0.00 -- 45.1 89.0
05/28/2019 04:00 1294.77 24.0 0.00 -- 44.9 96.0
05/28/2019 03:00 1294.77 25.0 0.00 -- 44.4 95.0
05/28/2019 02:00 1294.76 25.0 0.00 -- 46.4 90.0
05/28/2019 01:00 1294.77 25.0 0.00 -- 47.4 86.0
05/28/2019 00:00 1294.77 23.0 0.00 0.60 50.5 72.0
05/27/2019 23:00 1294.78 25.0 0.00 -- 53.0 65.0
05/27/2019 22:00 1294.77 27.0 0.00 -- 56.3 57.0
05/27/2019 21:00 1294.79 28.0 0.00 -- 59.9 53.0
05/27/2019 20:00 1294.79 30.0 0.00 -- 67.5 42.0
05/27/2019 19:00 1294.78 28.0 0.00 -- 67.7 35.0
05/27/2019 18:00 1294.80 26.0 0.00 -- 71.6 31.0
05/27/2019 17:00 1294.80 26.0 0.00 -- 68.4 40.0
05/27/2019 16:00 1294.81 27.0 0.00 -- 70.9 35.0
05/27/2019 15:00 1294.80 29.0 0.00 -- 67.7 41.0
05/27/2019 14:00 1294.80 26.0 0.00 -- 67.4 40.0
05/27/2019 13:00 1294.79 30.0 0.00 -- 66.3 41.0
05/27/2019 12:00 1294.82 29.0 0.00 -- 64.1 42.0
05/27/2019 11:00 1294.81 29.0 0.00 -- 61.5 44.0
05/27/2019 10:00 1294.80 29.0 0.00 -- 59.7 54.0
05/27/2019 09:00 1294.79 32.0 0.00 -- 56.9 68.0
05/27/2019 08:00 1294.79 29.0 0.00 -- 49.8 100.0
05/27/2019 07:00 1294.79 27.0 0.00 -- 47.9 100.0
05/27/2019 06:00 1294.79 27.0 0.00 -- 47.9 100.0
05/27/2019 05:00 1294.79 28.0 0.00 -- 49.8 99.0
05/27/2019 04:00 1294.80 28.0 0.00 -- 50.7 99.0
05/27/2019 03:00 1294.79 27.0 0.00 -- 52.8 97.0
05/27/2019 02:00 1294.79 28.0 0.00 -- 54.0 85.0
05/27/2019 01:00 1294.80 27.0 0.00 -- 57.8 73.0
05/27/2019 00:00 1294.81 29.0 0.00 0.00 61.0 64.0
05/26/2019 23:00 1294.80 31.0 0.00 -- 61.0 68.0
05/26/2019 22:00 1294.80 30.0 0.00 -- 63.7 65.0
05/26/2019 21:00 1294.80 29.0 0.00 -- 69.5 49.0
05/26/2019 20:00 1294.80 28.0 0.00 -- 75.2 35.0
05/26/2019 19:00 1294.79 29.0 0.00 -- 75.4 43.0
05/26/2019 18:00 1294.80 28.0 0.00 -- 76.5 37.0
05/26/2019 17:00 1294.76 29.0 0.00 -- 77.6 39.0
05/26/2019 16:00 1294.83 30.0 0.00 -- 76.8 39.0
05/26/2019 15:00 1294.81 30.0 0.00 -- 75.3 44.0
05/26/2019 14:00 1294.80 33.0 0.00 -- 74.9 46.0
05/26/2019 13:00 1294.79 29.0 0.00 -- 71.6 56.0
05/26/2019 12:00 1294.79 27.0 0.00 -- 70.1 58.0
05/26/2019 11:00 1294.80 28.0 0.00 -- 67.2 65.0
05/26/2019 10:00 1294.80 31.0 0.00 -- 63.1 74.0
05/26/2019 09:00 1294.80 29.0 0.00 -- 55.8 90.0
05/26/2019 08:00 1294.80 27.0 0.00 -- 51.7 99.0
05/26/2019 07:00 1294.80 30.0 0.00 -- 50.5 99.0
05/26/2019 06:00 1294.81 25.0 0.00 -- 50.7 90.0
05/26/2019 05:00 1294.79 29.0 0.00 -- 50.6 85.0
05/26/2019 04:00 1294.79 25.0 0.00 -- 50.4 83.0
05/26/2019 03:00 1294.79 28.0 0.00 -- 51.0 75.0
05/26/2019 02:00 1294.76 26.0 0.00 -- 52.5 69.0
05/26/2019 01:00 1294.74 30.0 0.00 -- 55.0 63.0
05/26/2019 00:00 1294.76 22.0 0.00 0.00 56.8 59.0
05/25/2019 23:00 1294.81 24.0 0.00 -- 58.4 64.0
05/25/2019 22:00 1294.80 25.0 0.00 -- 59.8 63.0
05/25/2019 21:00 1294.78 31.0 0.00 -- 61.6 58.0
05/25/2019 20:00 1294.80 28.0 0.00 -- 63.2 48.0
05/25/2019 19:00 1294.80 27.0 0.00 -- 64.5 43.0
05/25/2019 18:00 1294.82 28.0 0.00 -- 66.5 42.0
05/25/2019 17:00 1294.79 29.0 0.00 -- 69.3 30.0
05/25/2019 16:00 1294.80 29.0 0.00 -- 68.9 35.0
05/25/2019 15:00 1294.81 33.0 0.00 -- 67.0 34.0
05/25/2019 14:00 1294.80 31.0 0.00 -- 65.6 35.0
05/25/2019 13:00 1294.80 31.0 0.00 -- 62.9 39.0
05/25/2019 12:00 1294.81 30.0 0.00 -- 61.8 42.0
05/25/2019 11:00 1294.82 32.0 0.00 -- 60.0 45.0
05/25/2019 10:00 1294.82 32.0 0.00 -- 57.8 59.0
05/25/2019 09:00 1294.82 33.0 0.00 -- 50.3 92.0
05/25/2019 08:00 1294.82 32.0 0.00 -- 43.9 100.0
05/25/2019 07:00 1294.82 32.0 0.00 -- 39.4 100.0
05/25/2019 06:00 1294.83 32.0 0.00 -- 40.3 100.0
05/25/2019 05:00 1294.83 33.0 0.00 -- 40.5 100.0
05/25/2019 04:00 1294.82 33.0 0.00 -- 41.4 100.0
05/25/2019 03:00 1294.82 33.0 0.00 -- 42.3 100.0
05/25/2019 02:00 1294.83 33.0 0.00 -- 44.3 100.0
05/25/2019 01:00 1294.83 34.0 0.00 -- 45.7 99.0
05/25/2019 00:00 1294.82 33.0 0.00 0.00 49.2 92.0
05/24/2019 23:00 1294.83 34.0 0.00 -- 53.1 78.0
05/24/2019 22:00 1294.84 34.0 0.00 -- 53.2 75.0
05/24/2019 21:00 1294.84 34.0 0.00 -- 54.4 71.0
05/24/2019 20:00 1294.85 35.0 0.00 -- 55.7 69.0
05/24/2019 19:00 1294.88 38.0 0.00 -- 56.8 64.0
05/24/2019 18:00 1294.88 40.0 0.00 -- 58.8 62.0
05/24/2019 17:00 1294.91 36.0 0.00 -- 59.4 61.0
05/24/2019 16:00 1294.86 41.0 0.00 -- 58.9 61.0
05/24/2019 15:00 1294.85 37.0 0.00 -- 61.1 59.0
05/24/2019 14:00 1294.88 41.0 0.00 -- 60.1 59.0
05/24/2019 13:00 1294.90 48.0 0.00 -- 58.9 62.0
05/24/2019 12:00 1294.85 48.0 0.00 -- 57.3 66.0
05/24/2019 11:00 1294.85 44.0 0.00 -- 55.7 70.0
05/24/2019 10:00 1294.84 41.0 0.00 -- 55.1 84.0
05/24/2019 09:00 1294.84 39.0 0.00 -- 54.2 89.0
05/24/2019 08:00 1294.84 35.0 0.00 -- 53.7 88.0
05/24/2019 07:00 1294.85 34.0 0.00 -- 52.5 99.0
05/24/2019 06:00 1294.84 33.0 0.00 -- 50.5 100.0
05/24/2019 05:00 1294.84 35.0 0.00 -- 52.5 100.0
05/24/2019 04:00 1294.82 33.0 0.00 -- 51.7 100.0
05/24/2019 03:00 1294.84 35.0 0.00 -- 53.3 100.0
05/24/2019 02:00 1294.83 34.0 0.00 -- 53.9 100.0
05/24/2019 01:00 1294.81 35.0 0.01 -- 54.2 100.0
05/24/2019 00:00 1294.80 34.0 0.37 0.01 55.1 100.0
05/23/2019 23:00 1294.77 42.0 0.00 -- 55.2 94.0
05/23/2019 22:00 1294.79 24.0 0.00 -- 54.9 91.0
05/23/2019 21:00 1294.78 27.0 0.00 -- 55.6 85.0
05/23/2019 20:00 1294.78 28.0 0.00 -- 56.2 82.0
05/23/2019 19:00 1294.77 29.0 0.01 -- 57.6 84.0
05/23/2019 18:00 1294.78 27.0 0.02 -- 57.8 99.0
05/23/2019 17:00 1294.77 26.0 0.00 -- 61.6 75.0
05/23/2019 16:00 1294.78 24.0 0.00 -- 65.4 61.0
05/23/2019 15:00 1294.79 23.0 0.00 -- 67.9 56.0
05/23/2019 14:00 1294.78 26.0 0.00 -- 67.4 55.0
05/23/2019 13:00 1294.79 28.0 0.00 -- 66.1 53.0
05/23/2019 12:00 1294.78 26.0 0.00 -- 61.0 59.0
05/23/2019 11:00 1294.78 28.0 0.00 -- 58.3 61.0
05/23/2019 10:00 1294.80 25.0 0.00 -- 57.4 58.0
05/23/2019 09:00 1294.78 28.0 0.00 -- 52.4 73.0
05/23/2019 08:00 1294.79 27.0 0.00 -- 49.6 78.0
05/23/2019 07:00 1294.80 28.0 0.00 -- 47.4 84.0
05/23/2019 06:00 1294.80 30.0 0.00 -- 47.0 86.0
05/23/2019 05:00 1294.81 30.0 0.00 -- 47.1 86.0
05/23/2019 04:00 1294.81 30.0 0.00 -- 46.7 84.0
05/23/2019 03:00 1294.81 29.0 0.00 -- 47.7 81.0
05/23/2019 02:00 1294.81 31.0 0.00 -- 45.1 87.0
05/23/2019 01:00 1294.80 31.0 0.00 -- 43.8 86.0
05/23/2019 00:00 1294.81 31.0 0.00 0.40 46.3 80.0
05/22/2019 23:00 1294.81 31.0 0.00 -- 48.5 73.0
05/22/2019 22:00 1294.81 32.0 0.00 -- 50.7 64.0
05/22/2019 21:00 1294.81 31.0 0.00 -- 54.1 53.0
05/22/2019 20:00 1294.82 31.0 0.00 -- 61.8 32.0
05/22/2019 19:00 1294.82 32.0 0.00 -- 64.8 25.0
05/22/2019 18:00 1294.83 34.0 0.00 -- 65.3 25.0
05/22/2019 17:00 1294.82 34.0 0.00 -- 63.2 26.0
05/22/2019 16:00 1294.83 36.0 0.00 -- 63.2 27.0
05/22/2019 15:00 1294.83 33.0 0.00 -- 61.0 30.0
05/22/2019 14:00 1294.88 35.0 0.00 -- 59.4 34.0
05/22/2019 13:00 1294.86 36.0 0.00 -- 56.6 35.0
05/22/2019 12:00 1294.82 31.0 0.00 -- 53.4 42.0
05/22/2019 11:00 1294.85 38.0 0.00 -- 51.4 46.0
05/22/2019 10:00 1294.86 37.0 0.00 -- 49.6 53.0
05/22/2019 09:00 1294.86 38.0 0.00 -- 47.2 58.0
05/22/2019 08:00 1294.85 40.0 0.00 -- 46.4 63.0
05/22/2019 07:00 1294.85 38.0 0.00 -- 45.2 67.0
05/22/2019 06:00 1294.85 37.0 0.00 -- 46.4 64.0
05/22/2019 05:00 1294.84 38.0 0.00 -- 47.4 63.0
05/22/2019 04:00 1294.83 36.0 0.00 -- 47.0 61.0
05/22/2019 03:00 1294.84 37.0 0.00 -- 48.4 61.0
05/22/2019 02:00 1294.84 36.0 0.00 -- 49.2 53.0
05/22/2019 01:00 1294.84 36.0 0.00 -- 49.6 49.0
05/22/2019 00:00 1294.85 33.0 0.00 0.00 50.6 50.0
05/21/2019 23:00 1294.83 40.0 0.00 -- 51.0 45.0
05/21/2019 22:00 1294.85 40.0 0.00 -- 51.9 43.0
05/21/2019 21:00 1294.87 38.0 0.00 -- 53.3 44.0
05/21/2019 20:00 1294.86 36.0 0.00 -- 56.1 42.0
05/21/2019 19:00 1294.87 42.0 0.00 -- 55.3 38.0
05/21/2019 18:00 1294.86 44.0 0.00 -- 54.4 46.0
05/21/2019 17:00 1294.86 43.0 0.00 -- 53.5 44.0
05/21/2019 16:00 1294.84 48.0 0.00 -- 54.0 44.0
05/21/2019 15:00 1294.88 39.0 0.00 -- 55.9 41.0
05/21/2019 14:00 1294.89 33.0 0.00 -- 54.8 42.0
05/21/2019 13:00 1294.87 38.0 0.00 -- 53.3 44.0
05/21/2019 12:00 1294.82 43.0 0.00 -- 51.7 47.0
05/21/2019 11:00 1294.90 35.0 0.00 -- 50.6 49.0
05/21/2019 10:00 1294.90 50.0 0.00 -- 49.2 53.0
05/21/2019 09:00 1294.87 48.0 0.00 -- 47.6 56.0
05/21/2019 08:00 1294.88 39.0 0.00 -- 48.5 66.0
05/21/2019 07:00 1294.86 40.0 0.00 -- 48.6 65.0
05/21/2019 06:00 1294.84 43.0 0.00 -- 49.2 64.0
05/21/2019 05:00 1294.85 43.0 0.00 -- 50.1 64.0
05/21/2019 04:00 1294.88 38.0 0.00 -- 50.4 64.0
05/21/2019 03:00 1294.88 40.0 0.00 -- 52.6 58.0
05/21/2019 02:00 1294.86 45.0 0.00 -- 54.8 58.0
05/21/2019 01:00 1294.85 40.0 0.00 -- 57.8 59.0
05/21/2019 00:00 1294.87 37.0 0.00 0.00 62.0 65.0
05/20/2019 23:00 1294.88 43.0 0.00 -- 64.9 63.0
05/20/2019 22:00 1294.87 42.0 0.00 -- 66.3 74.0
05/20/2019 21:00 1294.88 41.0 0.00 -- 68.2 69.0
05/20/2019 20:00 1294.88 42.0 0.00 -- 71.4 57.0
05/20/2019 19:00 1294.86 42.0 0.00 -- 73.1 50.0
05/20/2019 18:00 1294.87 43.0 0.00 -- 75.3 49.0
05/20/2019 17:00 1294.84 36.0 0.00 -- 76.5 50.0
05/20/2019 16:00 1294.84 35.0 0.00 -- 74.0 58.0
05/20/2019 15:00 1294.82 37.0 0.00 -- 72.2 62.0
05/20/2019 14:00 1294.85 33.0 0.00 -- 71.3 67.0
05/20/2019 13:00 1294.86 37.0 0.00 -- 69.7 71.0
05/20/2019 12:00 1294.86 35.0 0.00 -- 65.5 88.0
05/20/2019 11:00 1294.85 38.0 0.00 -- 67.2 74.0
05/20/2019 10:00 1294.85 38.0 0.00 -- 63.9 100.0
05/20/2019 09:00 1294.86 39.0 0.01 -- 62.1 100.0
05/20/2019 08:00 1294.86 41.0 0.01 -- 62.3 100.0
05/20/2019 07:00 1294.85 40.0 0.00 -- 62.5 100.0
05/20/2019 06:00 1294.86 38.0 0.00 -- 63.3 99.0
05/20/2019 05:00 1294.82 36.0 0.00 -- 63.7 99.0
05/20/2019 04:00 1294.85 35.0 0.00 -- 62.4 100.0
05/20/2019 03:00 1294.85 35.0 0.01 -- 62.6 100.0
05/20/2019 02:00 1294.86 39.0 0.00 -- 62.4 100.0
05/20/2019 01:00 1294.86 40.0 0.00 -- 62.1 100.0
05/20/2019 00:00 1294.86 40.0 0.00 0.03 62.7 100.0
05/19/2019 23:00 1294.87 39.0 0.00 -- 64.1 98.0
05/19/2019 22:00 1294.87 37.0 0.00 -- 65.6 86.0
05/19/2019 21:00 1294.84 42.0 0.00 -- 66.3 77.0
05/19/2019 20:00 1294.84 35.0 0.00 -- 69.4 67.0
05/19/2019 19:00 1294.84 36.0 0.00 -- 74.5 54.0
05/19/2019 18:00 1294.83 35.0 0.00 -- 74.5 53.0
05/19/2019 17:00 1294.84 35.0 0.00 -- 72.7 58.0
05/19/2019 16:00 1294.82 34.0 0.00 -- 67.7 67.0
05/19/2019 15:00 1294.83 33.0 0.00 -- 64.0 73.0
05/19/2019 14:00 1294.85 34.0 0.00 -- 60.8 80.0
05/19/2019 13:00 1294.84 37.0 0.00 -- 58.3 84.0
05/19/2019 12:00 1294.84 39.0 0.00 -- 55.4 99.0
05/19/2019 11:00 1294.85 38.0 0.07 -- 51.0 99.0
05/19/2019 10:00 1294.84 34.0 0.00 -- 51.7 78.0
05/19/2019 09:00 1294.87 37.0 0.00 -- 51.0 72.0
05/19/2019 08:00 1294.86 40.0 0.00 -- 47.7 84.0
05/19/2019 07:00 1294.86 40.0 0.00 -- 46.9 84.0
05/19/2019 06:00 1294.85 41.0 0.00 -- 46.4 83.0
05/19/2019 05:00 1294.86 38.0 0.00 -- 48.5 75.0
05/19/2019 04:00 1294.86 38.0 0.00 -- 50.1 68.0
05/19/2019 03:00 1294.87 38.0 0.00 -- 49.5 75.0
05/19/2019 02:00 1294.86 39.0 0.00 -- 51.1 70.0
05/19/2019 01:00 1294.86 39.0 0.00 -- 52.3 63.0
05/19/2019 00:00 1294.86 39.0 0.00 0.07 54.2 59.0
05/18/2019 23:00 1294.86 39.0 0.00 -- 55.4 57.0
05/18/2019 22:00 1294.86 40.0 0.00 -- 55.6 64.0
05/18/2019 21:00 1294.86 39.0 0.00 -- 57.5 55.0
05/18/2019 20:00 1294.86 39.0 0.00 -- 66.6 31.0
05/18/2019 19:00 1294.86 38.0 0.00 -- 67.5 29.0
05/18/2019 18:00 1294.88 40.0 0.00 -- 67.1 33.0
05/18/2019 17:00 1294.87 43.0 0.00 -- 65.7 32.0
05/18/2019 16:00 1294.87 38.0 0.00 -- 64.4 32.0
05/18/2019 15:00 1294.87 42.0 0.00 -- 62.3 34.0
05/18/2019 14:00 1294.86 40.0 0.00 -- 59.9 38.0
05/18/2019 13:00 1294.87 41.0 0.00 -- 57.7 40.0
05/18/2019 12:00 1294.89 41.0 0.00 -- 54.9 44.0
05/18/2019 11:00 1294.88 43.0 0.00 -- 52.9 47.0
05/18/2019 10:00 1294.87 43.0 0.00 -- 51.0 51.0
05/18/2019 09:00 1294.89 42.0 0.00 -- 47.9 55.0
05/18/2019 08:00 1294.88 41.0 0.00 -- 45.8 63.0
05/18/2019 07:00 1294.87 42.0 0.00 -- 44.0 67.0
05/18/2019 06:00 1294.86 39.0 0.00 -- 44.5 67.0
05/18/2019 05:00 1294.85 40.0 0.00 -- 46.4 63.0
05/18/2019 04:00 1294.87 40.0 0.00 -- 48.9 64.0
05/18/2019 03:00 1294.88 36.0 0.00 -- 51.8 61.0
05/18/2019 02:00 1294.86 42.0 0.00 -- 50.8 76.0
05/18/2019 01:00 1294.86 38.0 0.00 -- 51.0 91.0
05/18/2019 00:00 1294.84 38.0 0.00 0.00 55.4 73.0
05/17/2019 23:00 1294.83 38.0 0.00 -- 57.4 73.0
05/17/2019 22:00 1294.83 35.0 0.00 -- 57.9 97.0
05/17/2019 21:00 1294.83 32.0 0.00 -- 60.2 83.0
05/17/2019 20:00 1294.82 33.0 0.00 -- 62.1 74.0
05/17/2019 19:00 1294.83 34.0 0.00 -- 65.7 62.0
05/17/2019 18:00 1294.81 31.0 0.00 -- 64.9 63.0
05/17/2019 17:00 1294.82 31.0 0.00 -- 61.9 67.0
05/17/2019 16:00 1294.80 29.0 0.00 -- 61.2 66.0
05/17/2019 15:00 1294.82 30.0 0.00 -- 59.8 68.0
05/17/2019 14:00 1294.80 31.0 0.00 -- 58.3 71.0
05/17/2019 13:00 1294.80 30.0 0.00 -- 54.8 84.0
05/17/2019 12:00 1294.81 30.0 0.00 -- 49.1 99.0
05/17/2019 11:00 1294.80 33.0 0.04 -- 44.3 100.0
05/17/2019 10:00 1294.80 31.0 0.04 -- 44.4 100.0
05/17/2019 09:00 1294.80 30.0 0.02 -- 43.7 100.0
05/17/2019 08:00 1294.80 29.0 0.02 -- 43.3 100.0
05/17/2019 07:00 1294.81 29.0 0.01 -- 42.6 100.0
05/17/2019 06:00 1294.80 28.0 0.00 -- 42.2 100.0
05/17/2019 05:00 1294.79 27.0 0.00 -- 41.4 99.0
05/17/2019 04:00 1294.79 27.0 0.00 -- 40.2 100.0
05/17/2019 03:00 1294.78 27.0 0.00 -- 40.4 100.0
05/17/2019 02:00 1294.78 26.0 0.00 -- 41.4 99.0
05/17/2019 01:00 1294.78 26.0 0.00 -- 43.9 99.0
05/17/2019 00:00 1294.78 25.0 0.00 0.13 46.0 94.0
05/16/2019 23:00 1294.77 25.0 0.00 -- 46.2 88.0
05/16/2019 22:00 1294.77 25.0 0.00 -- 47.4 79.0
05/16/2019 21:00 1294.76 25.0 0.00 -- 51.2 67.0
05/16/2019 20:00 1294.76 24.0 0.00 -- 57.9 50.0
05/16/2019 19:00 1294.76 23.0 0.00 -- 59.8 39.0
05/16/2019 18:00 1294.76 23.0 0.00 -- 60.0 40.0
05/16/2019 17:00 1294.76 24.0 0.00 -- 58.6 44.0
05/16/2019 16:00 1294.75 24.0 0.00 -- 58.7 40.0
05/16/2019 15:00 1294.75 20.0 0.00 -- 55.6 47.0
05/16/2019 14:00 1294.74 21.0 0.00 -- 55.5 47.0
05/16/2019 13:00 1294.74 21.0 0.00 -- 53.7 51.0
05/16/2019 12:00 1294.75 22.0 0.00 -- 53.2 54.0
05/16/2019 11:00 1294.76 20.0 0.00 -- 51.8 58.0
05/16/2019 10:00 1294.72 21.0 0.00 -- 50.5 65.0
05/16/2019 09:00 1294.72 19.0 0.00 -- 47.1 75.0
05/16/2019 08:00 1294.71 18.0 0.00 -- 39.1 100.0
05/16/2019 07:00 1294.71 18.0 0.00 -- 37.8 100.0
05/16/2019 06:00 1294.71 17.0 0.00 -- 38.2 100.0
05/16/2019 05:00 1294.70 15.0 0.00 -- 37.4 100.0
05/16/2019 04:00 1294.70 15.0 0.00 -- 39.7 100.0
05/16/2019 03:00 1294.68 15.0 0.00 -- 41.7 100.0
05/16/2019 02:00 1294.68 15.0 0.00 -- 42.4 99.0
05/16/2019 01:00 1294.67 14.0 0.00 -- 42.5 99.0
05/16/2019 00:00 1294.67 13.0 0.00 0.00 43.2 99.0
05/15/2019 23:00 1294.66 13.0 0.00 -- 43.5 99.0
05/15/2019 22:00 1294.65 12.0 0.00 -- 44.6 96.0
05/15/2019 21:00 1294.65 12.0 0.00 -- 46.2 84.0
05/15/2019 20:00 1294.64 12.0 0.00 -- 49.3 59.0
05/15/2019 19:00 1294.63 12.0 0.00 -- 51.0 56.0
05/15/2019 18:00 1294.64 12.0 0.00 -- 52.3 48.0
05/15/2019 17:00 1294.64 11.0 0.00 -- 50.3 50.0
05/15/2019 16:00 1294.60 11.0 0.00 -- 47.5 57.0
05/15/2019 15:00 1294.58 11.0 0.00 -- 46.3 58.0
05/15/2019 14:00 1294.59 11.0 0.00 -- 45.0 67.0
05/15/2019 13:00 1294.63 11.0 0.00 -- 45.3 65.0
05/15/2019 12:00 1294.60 11.0 0.00 -- 43.6 70.0
05/15/2019 11:00 1294.59 10.0 0.00 -- 42.7 75.0
05/15/2019 10:00 1294.57 11.0 0.00 -- 40.4 86.0
05/15/2019 09:00 1294.56 10.0 0.00 -- 39.7 87.0
05/15/2019 08:00 1294.55 10.0 0.00 -- 38.8 93.0
05/15/2019 07:00 1294.54 9.0 0.00 -- 38.0 99.0
05/15/2019 06:00 1294.53 9.0 0.00 -- 37.9 99.0
05/15/2019 05:00 1294.53 8.0 0.00 -- 38.0 100.0
05/15/2019 04:00 1294.51 8.0 0.01 -- 37.0 100.0
05/15/2019 03:00 1294.51 8.0 0.00 -- 36.8 100.0
05/15/2019 02:00 1294.49 8.0 0.01 -- 37.4 100.0
05/15/2019 01:00 1294.48 8.0 0.01 -- 37.5 100.0
05/15/2019 00:00 1294.47 7.0 0.00 0.03 37.7 100.0
05/14/2019 23:00 1294.47 7.0 0.00 -- 37.9 100.0
05/14/2019 22:00 1294.46 7.0 0.00 -- 38.2 100.0
05/14/2019 21:00 1294.45 7.0 0.00 -- 38.6 99.0
05/14/2019 20:00 1294.44 7.0 0.00 -- 39.9 93.0
05/14/2019 19:00 1294.42 7.0 0.00 -- 39.9 90.0
05/14/2019 18:00 1294.41 7.0 0.00 -- 40.4 84.0
05/14/2019 17:00 1294.40 6.0 0.00 -- 39.9 94.0
05/14/2019 16:00 1294.42 6.0 0.00 -- 40.0 91.0
05/14/2019 15:00 1294.39 6.0 0.00 -- 38.9 99.0
05/14/2019 14:00 1294.38 6.0 0.00 -- 38.3 98.0
05/14/2019 13:00 1294.37 6.0 0.01 -- 37.2 99.0
05/14/2019 12:00 1294.36 121.0 0.00 -- 36.2 99.0
05/14/2019 11:00 1294.38 121.0 0.05 -- 36.5 100.0
05/14/2019 10:00 1294.38 121.0 0.07 -- 34.4 100.0
05/14/2019 09:00 1294.39 121.0 0.06 -- 33.3 100.0
05/14/2019 08:00 1294.38 122.0 0.03 -- 32.2 100.0
05/14/2019 07:00 1294.39 122.0 0.00 -- 31.6 100.0
05/14/2019 06:00 1294.39 122.0 0.01 -- 31.6 100.0
05/14/2019 05:00 1294.40 123.0 0.00 -- 31.4 100.0
05/14/2019 04:00 1294.40 122.0 0.00 -- 31.2 100.0
05/14/2019 03:00 1294.41 122.0 0.00 -- 31.5 100.0
05/14/2019 02:00 1294.42 123.0 0.01 -- 31.4 100.0
05/14/2019 01:00 1294.41 123.0 0.06 -- 32.0 100.0
05/14/2019 00:00 1294.39 124.0 0.04 0.30 33.9 100.0
05/13/2019 23:00 1294.40 123.0 0.10 -- 35.1 100.0
05/13/2019 22:00 1294.41 122.0 0.05 -- 36.1 100.0
05/13/2019 21:00 1294.42 123.0 0.04 -- 36.3 100.0
05/13/2019 20:00 1294.43 124.0 0.04 -- 36.9 99.0
05/13/2019 19:00 1294.42 124.0 0.03 -- 40.4 99.0
05/13/2019 18:00 1294.43 124.0 0.00 -- 43.0 79.0
05/13/2019 17:00 1294.42 124.0 0.00 -- 46.7 57.0
05/13/2019 16:00 1294.44 123.0 0.00 -- 49.0 50.0
05/13/2019 15:00 1294.42 125.0 0.00 -- 51.2 46.0
05/13/2019 14:00 1294.46 125.0 0.00 -- 50.0 46.0
05/13/2019 13:00 1294.45 7.0 0.00 -- 50.0 48.0
05/13/2019 12:00 1294.49 7.0 0.00 -- 47.5 50.0
05/13/2019 11:00 1294.44 7.0 0.00 -- 47.1 49.0
05/13/2019 10:00 1294.45 7.0 0.00 -- 46.7 51.0
05/13/2019 09:00 1294.45 7.0 0.00 -- 43.6 58.0
05/13/2019 08:00 1294.44 7.0 0.00 -- 37.7 88.0
05/13/2019 07:00 1294.43 7.0 0.00 -- 36.8 89.0
05/13/2019 06:00 1294.43 7.0 0.00 -- 37.7 87.0
05/13/2019 05:00 1294.43 7.0 0.00 -- 38.3 90.0
05/13/2019 04:00 1294.42 7.0 0.00 -- 38.6 88.0
05/13/2019 03:00 1294.42 7.0 0.00 -- 38.6 84.0
05/13/2019 02:00 1294.41 7.0 0.00 -- 38.9 82.0
05/13/2019 01:00 1294.40 6.0 0.00 -- 39.4 80.0
05/13/2019 00:00 1294.40 6.0 0.00 0.30 40.0 77.0
05/12/2019 23:00 1294.40 6.0 0.00 -- 40.3 77.0
05/12/2019 22:00 1294.40 6.0 0.00 -- 40.8 71.0
05/12/2019 21:00 1294.38 6.0 0.00 -- 42.7 65.0
05/12/2019 20:00 1294.38 6.0 0.00 -- 43.6 56.0
05/12/2019 19:00 1294.38 6.0 0.00 -- 44.8 50.0
05/12/2019 18:00 1294.38 6.0 0.00 -- 45.4 47.0
05/12/2019 17:00 1294.37 6.0 0.00 -- 45.6 48.0
05/12/2019 16:00 1294.37 6.0 0.00 -- 45.6 43.0
05/12/2019 15:00 1294.37 6.0 0.00 -- 46.4 41.0
05/12/2019 14:00 1294.36 6.0 0.00 -- 46.2 41.0
05/12/2019 13:00 1294.36 6.0 0.00 -- 45.0 50.0
05/12/2019 12:00 1294.35 5.0 0.00 -- 43.6 57.0
05/12/2019 11:00 1294.35 6.0 0.00 -- 43.3 52.0
05/12/2019 10:00 1294.32 6.0 0.00 -- 42.0 61.0
05/12/2019 09:00 1294.32 5.0 0.00 -- 41.7 60.0
05/12/2019 08:00 1294.32 5.0 0.00 -- 40.8 73.0
05/12/2019 07:00 1294.32 5.0 0.00 -- 40.5 69.0
05/12/2019 06:00 1294.31 5.0 0.00 -- 40.9 65.0
05/12/2019 05:00 1294.31 5.0 0.00 -- 40.6 66.0
05/12/2019 04:00 1294.30 5.0 0.00 -- 41.5 66.0
05/12/2019 03:00 1294.29 5.0 0.00 -- 41.5 60.0
05/12/2019 02:00 1294.28 5.0 0.00 -- 42.0 59.0
05/12/2019 01:00 1294.29 5.0 0.00 -- 42.6 53.0
05/12/2019 00:00 1294.28 5.0 0.00 0.00 43.2 58.0
05/11/2019 23:00 1294.30 4.0 0.00 -- 45.7 52.0
05/11/2019 22:00 1294.29 5.0 0.00 -- 47.7 48.0
05/11/2019 21:00 1294.26 5.0 0.00 -- 50.2 47.0
05/11/2019 20:00 1294.27 4.0 0.00 -- 55.8 38.0
05/11/2019 19:00 1294.25 4.0 0.00 -- 57.7 32.0
05/11/2019 18:00 1294.26 4.0 0.00 -- 57.4 33.0
05/11/2019 17:00 1294.27 4.0 0.00 -- 56.9 32.0
05/11/2019 16:00 1294.23 4.0 0.00 -- 56.7 37.0
05/11/2019 15:00 1294.24 4.0 0.00 -- 55.1 39.0
05/11/2019 14:00 1294.19 4.0 0.00 -- 52.8 45.0
05/11/2019 13:00 1294.22 4.0 0.00 -- 50.2 49.0
05/11/2019 12:00 1294.22 3.0 0.00 -- 48.3 57.0
05/11/2019 11:00 1294.24 4.0 0.00 -- 47.0 67.0
05/11/2019 10:00 1294.20 4.0 0.00 -- 46.1 73.0
05/11/2019 09:00 1294.18 3.0 0.00 -- 45.6 75.0
05/11/2019 08:00 1294.19 3.0 0.00 -- 45.7 74.0
05/11/2019 07:00 1294.18 3.0 0.00 -- 44.4 97.0
05/11/2019 06:00 1294.15 3.0 0.00 -- 44.0 99.0
05/11/2019 05:00 1294.14 3.0 0.00 -- 46.2 91.0
05/11/2019 04:00 1294.14 3.0 0.00 -- 45.9 100.0
05/11/2019 03:00 1294.15 3.0 0.00 -- 49.5 81.0
05/11/2019 02:00 1294.13 3.0 0.00 -- 50.7 91.0
05/11/2019 01:00 1294.12 3.0 0.00 -- 52.7 100.0
05/11/2019 00:00 1294.10 2.0 0.00 0.00 54.5 100.0
05/10/2019 23:00 1294.10 2.0 0.00 -- 55.6 100.0
05/10/2019 22:00 1294.10 2.0 0.00 -- 55.1 100.0
05/10/2019 21:00 1294.08 2.0 0.00 -- 54.3 100.0
05/10/2019 20:00 1294.06 2.0 0.01 -- 53.8 100.0
05/10/2019 19:00 1294.06 2.0 0.00 -- 53.0 100.0
05/10/2019 18:00 1294.06 2.0 0.00 -- 51.9 100.0
05/10/2019 17:00 1294.04 2.0 0.01 -- 51.1 100.0
05/10/2019 16:00 1294.06 2.0 0.05 -- 50.8 100.0
05/10/2019 15:00 1294.05 2.0 0.01 -- 48.4 100.0
05/10/2019 14:00 1294.04 2.0 0.03 -- 47.5 100.0
05/10/2019 13:00 1294.02 2.0 0.05 -- 45.4 100.0
05/10/2019 12:00 1294.00 2.0 0.01 -- 44.4 99.0
05/10/2019 11:00 1294.00 1.0 0.00 -- 43.7 99.0
05/10/2019 10:00 1294.00 11.0 0.00 -- 42.4 96.0
05/10/2019 09:00 1294.00 11.0 0.00 -- 40.3 99.0
05/10/2019 08:00 1293.99 11.0 0.00 -- 39.0 99.0
05/10/2019 07:00 1293.99 11.0 0.00 -- 38.9 99.0
05/10/2019 06:00 1293.99 11.0 0.00 -- 39.2 100.0
05/10/2019 05:00 1293.99 11.0 0.00 -- 39.4 100.0
05/10/2019 04:00 1293.98 11.0 0.02 -- 39.9 99.0
05/10/2019 03:00 1293.98 11.0 0.06 -- 41.1 100.0
05/10/2019 02:00 1293.97 11.0 0.00 -- 43.0 87.0
05/10/2019 01:00 1293.97 10.0 0.00 -- 42.8 92.0
05/10/2019 00:00 1293.96 10.0 0.00 0.25 47.3 53.0
05/09/2019 23:00 1293.96 10.0 0.00 -- 48.1 53.0
05/09/2019 22:00 1293.96 10.0 0.00 -- 50.6 50.0
05/09/2019 21:00 1293.95 10.0 0.00 -- 53.7 43.0
05/09/2019 20:00 1293.95 10.0 0.00 -- 55.8 35.0
05/09/2019 19:00 1293.93 10.0 0.00 -- 57.1 31.0
05/09/2019 18:00 1293.92 10.0 0.00 -- 61.5 26.0
05/09/2019 17:00 1293.95 10.0 0.00 -- 62.8 25.0
05/09/2019 16:00 1293.92 10.0 0.00 -- 59.1 26.0
05/09/2019 15:00 1293.92 10.0 0.00 -- 59.3 27.0
05/09/2019 14:00 1293.93 9.0 0.00 -- 57.0 26.0
05/09/2019 13:00 1293.94 10.0 0.00 -- 53.4 26.0
05/09/2019 12:00 1293.93 10.0 0.00 -- 51.0 29.0
05/09/2019 11:00 1293.93 10.0 0.00 -- 49.5 30.0
05/09/2019 10:00 1293.92 10.0 0.00 -- 47.7 41.0
05/09/2019 09:00 1293.92 9.0 0.00 -- 43.0 45.0
05/09/2019 08:00 1293.93 9.0 0.00 -- 36.8 81.0
05/09/2019 07:00 1293.93 9.0 0.00 -- 32.0 85.0
05/09/2019 06:00 1293.91 9.0 0.00 -- 30.7 90.0
05/09/2019 05:00 1293.90 9.0 0.00 -- 29.2 91.0
05/09/2019 04:00 1293.89 9.0 0.00 -- 30.7 85.0
05/09/2019 03:00 1293.90 8.0 0.00 -- 32.4 77.0
05/09/2019 02:00 1293.90 8.0 0.00 -- 36.1 64.0
05/09/2019 01:00 1293.90 8.0 0.00 -- 41.9 46.0
05/09/2019 00:00 1293.90 9.0 0.00 0.00 38.3 55.0
05/08/2019 23:00 1293.90 8.0 0.00 -- 40.1 55.0
05/08/2019 22:00 1293.89 8.0 0.00 -- 41.1 44.0
05/08/2019 21:00 1293.88 8.0 0.00 -- 47.9 30.0
05/08/2019 20:00 1293.89 8.0 0.00 -- 53.8 20.0
05/08/2019 19:00 1293.88 8.0 0.00 -- 56.1 18.0
05/08/2019 18:00 1293.93 8.0 0.00 -- 56.9 20.0
05/08/2019 17:00 1293.86 8.0 0.00 -- 57.0 22.0
05/08/2019 16:00 1293.92 9.0 0.00 -- 57.2 28.0
05/08/2019 15:00 1293.90 8.0 0.00 -- 55.6 35.0
05/08/2019 14:00 1293.89 8.0 0.00 -- 53.9 35.0
05/08/2019 13:00 1293.88 8.0 0.00 -- 51.8 44.0
05/08/2019 12:00 1293.84 8.0 0.00 -- 49.6 55.0
05/08/2019 11:00 1293.86 8.0 0.00 -- 48.1 57.0
05/08/2019 10:00 1293.85 8.0 0.00 -- 45.7 65.0
05/08/2019 09:00 1293.87 8.0 0.00 -- 42.4 77.0
05/08/2019 08:00 1293.84 8.0 0.00 -- 38.9 100.0
05/08/2019 07:00 1293.83 7.0 0.00 -- 38.4 100.0
05/08/2019 06:00 1293.83 7.0 0.00 -- 40.3 100.0
05/08/2019 05:00 1293.82 7.0 0.00 -- 40.1 100.0
05/08/2019 04:00 1293.81 7.0 0.00 -- 40.7 100.0
05/08/2019 03:00 1293.81 7.0 0.00 -- 41.7 100.0
05/08/2019 02:00 1293.80 7.0 0.01 -- 42.7 100.0
05/08/2019 01:00 1293.80 7.0 0.00 -- 44.8 100.0
05/08/2019 00:00 1293.79 7.0 0.00 0.01 46.3 100.0
05/07/2019 23:00 1293.78 7.0 0.00 -- 49.0 100.0
05/07/2019 22:00 1293.78 7.0 0.00 -- 49.9 100.0
05/07/2019 21:00 1293.79 6.0 0.01 -- 51.8 100.0
05/07/2019 20:00 1293.76 6.0 0.03 -- 52.1 100.0
05/07/2019 19:00 1293.76 6.0 0.02 -- 52.2 100.0
05/07/2019 18:00 1293.74 6.0 0.03 -- 52.9 99.0
05/07/2019 17:00 1293.75 6.0 0.00 -- 55.8 80.0
05/07/2019 16:00 1293.74 6.0 0.00 -- 60.9 56.0
05/07/2019 15:00 1293.72 6.0 0.00 -- 60.7 57.0
05/07/2019 14:00 1293.69 6.0 0.00 -- 60.9 55.0
05/07/2019 13:00 1293.71 5.0 0.00 -- 56.5 63.0
05/07/2019 12:00 1293.70 5.0 0.00 -- 56.2 62.0
05/07/2019 11:00 1293.69 5.0 0.00 -- 53.1 69.0
05/07/2019 10:00 1293.69 5.0 0.00 -- 49.6 78.0
05/07/2019 09:00 1293.68 5.0 0.00 -- 47.6 83.0
05/07/2019 08:00 1293.66 5.0 0.00 -- 46.9 85.0
05/07/2019 07:00 1293.67 5.0 0.00 -- 46.2 82.0
05/07/2019 06:00 1293.65 5.0 0.00 -- 45.2 81.0
05/07/2019 05:00 1293.65 5.0 0.00 -- 46.0 79.0
05/07/2019 04:00 1293.64 5.0 0.00 -- 45.5 74.0
05/07/2019 03:00 1293.66 5.0 0.00 -- 40.7 84.0
05/07/2019 02:00 1293.64 5.0 0.00 -- 40.7 85.0
05/07/2019 01:00 1293.65 5.0 0.00 -- 41.9 82.0
05/07/2019 00:00 1293.64 5.0 0.00 0.09 43.8 75.0
05/06/2019 23:00 1293.64 4.0 0.00 -- 47.5 67.0
05/06/2019 22:00 1293.62 4.0 0.00 -- 48.2 65.0
05/06/2019 21:00 1293.62 4.0 0.00 -- 52.4 56.0
05/06/2019 20:00 1293.61 4.0 0.00 -- 60.0 45.0
05/06/2019 19:00 1293.61 4.0 0.00 -- 64.3 42.0
05/06/2019 18:00 1293.60 4.0 0.00 -- 64.8 37.0
05/06/2019 17:00 1293.61 4.0 0.00 -- 63.7 38.0
05/06/2019 16:00 1293.61 4.0 0.00 -- 62.8 42.0
05/06/2019 15:00 1293.60 4.0 0.00 -- 61.3 43.0
05/06/2019 14:00 1293.59 4.0 0.00 -- 57.3 52.0
05/06/2019 13:00 1293.58 66.0 0.00 -- 55.7 60.0
05/06/2019 12:00 1293.59 66.0 0.00 -- 53.8 62.0
05/06/2019 11:00 1293.60 66.0 0.00 -- 51.2 68.0
05/06/2019 10:00 1293.61 66.0 0.00 -- 49.0 77.0
05/06/2019 09:00 1293.61 66.0 0.00 -- 47.0 90.0
05/06/2019 08:00 1293.61 66.0 0.00 -- 44.0 100.0
05/06/2019 07:00 1293.62 66.0 0.01 -- 41.4 100.0
05/06/2019 06:00 1293.62 66.0 0.00 -- 43.5 100.0
05/06/2019 05:00 1293.63 67.0 0.00 -- 44.4 100.0
05/06/2019 04:00 1293.64 67.0 0.00 -- 45.0 100.0
05/06/2019 03:00 1293.64 67.0 0.00 -- 45.5 100.0
05/06/2019 02:00 1293.64 67.0 0.00 -- 45.9 100.0
05/06/2019 01:00 1293.65 67.0 0.00 -- 46.9 100.0
05/06/2019 00:00 1293.66 67.0 0.00 0.01 47.4 100.0
05/05/2019 23:00 1293.67 68.0 0.00 -- 47.3 100.0
05/05/2019 22:00 1293.67 68.0 0.00 -- 47.6 100.0
05/05/2019 21:00 1293.67 68.0 0.00 -- 47.9 100.0
05/05/2019 20:00 1293.68 68.0 0.00 -- 48.8 100.0
05/05/2019 19:00 1293.69 68.0 0.00 -- 49.0 99.0
05/05/2019 18:00 1293.69 69.0 0.00 -- 49.1 99.0
05/05/2019 17:00 1293.71 69.0 0.00 -- 49.0 100.0
05/05/2019 16:00 1293.71 69.0 0.00 -- 49.0 100.0
05/05/2019 15:00 1293.72 69.0 0.00 -- 48.4 100.0
05/05/2019 14:00 1293.72 69.0 0.00 -- 48.0 100.0
05/05/2019 13:00 1293.72 70.0 0.01 -- 48.8 100.0
05/05/2019 12:00 1293.73 69.0 0.00 -- 49.6 100.0
05/05/2019 11:00 1293.73 70.0 0.00 -- 50.0 100.0
05/05/2019 10:00 1293.74 70.0 0.00 -- 50.3 100.0
05/05/2019 09:00 1293.75 70.0 0.00 -- 50.5 99.0
05/05/2019 08:00 1293.75 70.0 0.00 -- 48.8 100.0
05/05/2019 07:00 1293.76 70.0 0.00 -- 48.6 100.0
05/05/2019 06:00 1293.76 71.0 0.00 -- 49.0 100.0
05/05/2019 05:00 1293.77 71.0 0.00 -- 49.5 100.0
05/05/2019 04:00 1293.77 71.0 0.00 -- 49.7 100.0
05/05/2019 03:00 1293.78 71.0 0.00 -- 50.2 100.0
05/05/2019 02:00 1293.78 71.0 0.00 -- 51.6 100.0
05/05/2019 01:00 1293.79 72.0 0.00 -- 52.1 100.0
05/05/2019 00:00 1293.79 72.0 0.00 0.01 52.5 100.0
05/04/2019 23:00 1293.80 72.0 0.00 -- 52.9 100.0
05/04/2019 22:00 1293.80 72.0 0.00 -- 53.2 100.0
05/04/2019 21:00 1293.81 72.0 0.00 -- 54.4 100.0
05/04/2019 20:00 1293.81 72.0 0.00 -- 62.1 74.0
05/04/2019 19:00 1293.82 72.0 0.00 -- 60.0 78.0
05/04/2019 18:00 1293.82 72.0 0.00 -- 60.7 69.0
05/04/2019 17:00 1293.83 72.0 0.00 -- 61.0 71.0
05/04/2019 16:00 1293.83 73.0 0.00 -- 59.9 75.0
05/04/2019 15:00 1293.84 73.0 0.00 -- 59.7 74.0
05/04/2019 14:00 1293.84 73.0 0.00 -- 57.8 83.0
05/04/2019 13:00 1293.85 73.0 0.00 -- 56.4 85.0
05/04/2019 12:00 1293.86 73.0 0.00 -- 54.7 100.0
05/04/2019 11:00 1293.86 73.0 0.01 -- 52.3 100.0
05/04/2019 10:00 1293.86 74.0 0.00 -- 49.3 100.0
05/04/2019 09:00 1293.86 74.0 0.00 -- 46.9 100.0
05/04/2019 08:00 1293.86 74.0 0.00 -- 45.4 100.0
05/04/2019 07:00 1293.88 74.0 0.00 -- 45.7 100.0
05/04/2019 06:00 1293.88 74.0 0.00 -- 47.0 100.0
05/04/2019 05:00 1293.88 74.0 0.01 -- 47.6 100.0
05/04/2019 04:00 1293.89 74.0 0.00 -- 47.5 100.0
05/04/2019 03:00 1293.89 75.0 0.00 -- 47.3 100.0
05/04/2019 02:00 1293.89 75.0 0.00 -- 47.2 100.0
05/04/2019 01:00 1293.90 75.0 0.01 -- 48.1 100.0
05/04/2019 00:00 1293.90 75.0 0.01 0.03 47.7 100.0
05/03/2019 23:00 1293.90 75.0 0.08 -- 48.1 100.0
05/03/2019 22:00 1293.90 75.0 0.02 -- 48.1 100.0
05/03/2019 21:00 1293.91 75.0 0.03 -- 48.2 100.0
05/03/2019 20:00 1293.91 75.0 0.01 -- 48.3 100.0
05/03/2019 19:00 1293.91 75.0 0.00 -- 48.3 100.0
05/03/2019 18:00 1293.91 75.0 0.00 -- 47.6 100.0
05/03/2019 17:00 1293.92 76.0 0.00 -- 47.0 100.0
05/03/2019 16:00 1293.92 76.0 0.00 -- 45.8 100.0
05/03/2019 15:00 1293.94 76.0 0.03 -- 45.4 100.0
05/03/2019 14:00 1293.94 76.0 0.15 -- 44.0 100.0
05/03/2019 13:00 1293.95 76.0 0.00 -- 43.0 100.0
05/03/2019 12:00 1293.95 76.0 0.00 -- 42.6 100.0
05/03/2019 11:00 1293.95 77.0 0.00 -- 41.8 100.0
05/03/2019 10:00 1293.95 77.0 0.00 -- 40.3 100.0
05/03/2019 09:00 1293.97 77.0 0.01 -- 39.4 100.0
05/03/2019 08:00 1293.98 77.0 0.00 -- 38.2 100.0
05/03/2019 07:00 1293.99 77.0 0.00 -- 37.6 100.0
05/03/2019 06:00 1294.00 78.0 0.00 -- 37.4 100.0
05/03/2019 05:00 1294.00 78.0 0.00 -- 37.6 100.0
05/03/2019 04:00 1294.01 78.0 0.00 -- 37.7 100.0
05/03/2019 03:00 1294.02 78.0 0.00 -- 37.8 100.0
05/03/2019 02:00 1294.03 79.0 0.01 -- 37.8 100.0
05/03/2019 01:00 1294.04 79.0 0.00 -- 37.8 100.0
05/03/2019 00:00 1294.05 79.0 0.00 0.35 37.7 100.0
05/02/2019 23:00 1294.06 79.0 0.00 -- 37.9 100.0
05/02/2019 22:00 1294.06 80.0 0.00 -- 38.1 100.0
05/02/2019 21:00 1294.07 80.0 0.00 -- 38.4 100.0
05/02/2019 20:00 1294.07 80.0 0.00 -- 38.6 100.0
05/02/2019 19:00 1294.08 80.0 0.01 -- 39.3 100.0
05/02/2019 18:00 1294.09 81.0 0.00 -- 39.5 100.0
05/02/2019 17:00 1294.10 81.0 0.00 -- 39.8 100.0
05/02/2019 16:00 1294.11 81.0 0.01 -- 40.2 100.0
05/02/2019 15:00 1294.12 81.0 0.00 -- 40.3 100.0
05/02/2019 14:00 1294.13 82.0 0.00 -- 40.4 100.0
05/02/2019 13:00 1294.14 82.0 0.01 -- 40.1 100.0
05/02/2019 12:00 1294.15 82.0 0.00 -- 40.0 100.0
05/02/2019 11:00 1294.16 83.0 0.00 -- 39.5 100.0
05/02/2019 10:00 1294.17 83.0 0.00 -- 39.4 100.0
05/02/2019 09:00 1294.18 83.0 0.00 -- 39.8 100.0
05/02/2019 08:00 1294.18 84.0 0.00 -- 41.1 100.0
05/02/2019 07:00 1294.19 84.0 0.00 -- 41.9 100.0
05/02/2019 06:00 1294.19 84.0 0.01 -- 41.7 100.0
05/02/2019 05:00 1294.20 84.0 0.01 -- 41.7 100.0
05/02/2019 04:00 1294.20 84.0 0.01 -- 41.7 100.0
05/02/2019 03:00 1294.19 84.0 0.03 -- 41.0 100.0
05/02/2019 02:00 1294.18 85.0 0.06 -- 40.7 99.0
05/02/2019 01:00 1294.20 83.0 0.00 -- 43.6 73.0
05/02/2019 00:00 1294.23 84.0 0.00 0.15 42.9 69.0
05/01/2019 23:00 1294.24 85.0 0.00 -- 42.5 75.0
05/01/2019 22:00 1294.26 86.0 0.00 -- 43.1 65.0
05/01/2019 21:00 1294.27 86.0 0.00 -- 43.8 65.0
05/01/2019 20:00 1294.28 86.0 0.00 -- 45.2 58.0
05/01/2019 19:00 1294.29 87.0 0.00 -- 46.3 58.0
05/01/2019 18:00 1294.30 87.0 0.00 -- 47.0 52.0
05/01/2019 17:00 1294.31 87.0 0.00 -- 48.1 47.0
05/01/2019 16:00 1294.32 88.0 0.00 -- 46.9 45.0
05/01/2019 15:00 1294.33 88.0 0.00 -- 44.9 41.0
05/01/2019 14:00 1294.34 88.0 0.00 -- 43.0 44.0
05/01/2019 13:00 1294.35 88.0 0.00 -- 42.0 64.0
05/01/2019 12:00 1294.37 89.0 0.00 -- 42.3 51.0
05/01/2019 11:00 1294.38 89.0 0.00 -- 42.7 42.0
05/01/2019 10:00 1294.38 90.0 0.00 -- 41.8 60.0
05/01/2019 09:00 1294.39 90.0 0.00 -- 38.9 72.0
05/01/2019 08:00 1294.41 90.0 0.00 -- 36.5 97.0
05/01/2019 07:00 1294.41 91.0 0.00 -- 34.8 98.0
05/01/2019 06:00 1294.42 91.0 0.00 -- 34.7 95.0
05/01/2019 05:00 1294.43 91.0 0.00 -- 34.5 94.0
05/01/2019 04:00 1294.45 91.0 0.00 -- 34.0 94.0
05/01/2019 03:00 1294.46 92.0 0.00 -- 32.8 99.0
05/01/2019 02:00 1294.48 92.0 0.00 -- 31.0 99.0
05/01/2019 01:00 1294.48 92.0 0.00 -- 31.5 99.0
05/01/2019 00:00 1294.48 93.0 0.00 0.00 32.1 99.0
04/30/2019 23:00 1294.50 93.0 0.00 -- 34.6 99.0
04/30/2019 22:00 1294.51 93.0 0.00 -- 34.7 99.0
04/30/2019 21:00 1294.52 94.0 0.00 -- 37.8 88.0
04/30/2019 20:00 1294.54 94.0 0.00 -- 43.0 68.0
04/30/2019 19:00 1294.55 95.0 0.00 -- 42.1 74.0
04/30/2019 18:00 1294.56 95.0 0.00 -- 39.3 88.0
04/30/2019 17:00 1294.57 95.0 0.00 -- 40.3 99.0
04/30/2019 16:00 1294.59 96.0 0.00 -- 42.9 82.0
04/30/2019 15:00 1294.59 96.0 0.00 -- 42.2 86.0
04/30/2019 14:00 1294.60 96.0 0.00 -- 40.1 99.0
04/30/2019 13:00 1294.61 97.0 0.00 -- 38.9 99.0
04/30/2019 12:00 1294.61 97.0 0.00 -- 38.3 99.0
04/30/2019 11:00 1294.62 97.0 0.00 -- 37.1 100.0
04/30/2019 10:00 1294.63 97.0 0.01 -- 36.4 100.0
04/30/2019 09:00 1294.64 98.0 0.00 -- 35.8 100.0
04/30/2019 08:00 1294.65 98.0 0.00 -- 35.7 100.0
04/30/2019 07:00 1294.67 98.0 0.01 -- 36.0 100.0
04/30/2019 06:00 1294.67 99.0 0.00 -- 36.0 99.0
04/30/2019 05:00 1294.68 100.0 0.00 -- 36.2 99.0
04/30/2019 04:00 1294.69 100.0 0.00 -- 36.5 99.0
04/30/2019 03:00 1294.71 101.0 0.01 -- 36.8 99.0
04/30/2019 02:00 1294.71 102.0 0.00 -- 38.5 86.0
04/30/2019 01:00 1294.72 103.0 0.00 -- 38.1 93.0
04/30/2019 00:00 1294.73 105.0 0.00 0.03 42.2 52.0
04/29/2019 23:00 1294.75 107.0 0.00 -- 43.2 47.0
04/29/2019 22:00 1294.76 107.0 0.00 -- 41.0 50.0
04/29/2019 21:00 1294.76 110.0 0.00 -- 42.3 44.0
04/29/2019 20:00 1294.77 111.0 0.00 -- 45.3 32.0
04/29/2019 19:00 1294.79 112.0 0.00 -- 46.5 30.0
04/29/2019 18:00 1294.81 114.0 0.00 -- 47.9 29.0
04/29/2019 17:00 1294.80 115.0 0.00 -- 47.7 24.0
04/29/2019 16:00 1294.83 116.0 0.00 -- 48.5 24.0
04/29/2019 15:00 1294.83 118.0 0.00 -- 48.5 28.0
04/29/2019 14:00 1294.83 123.0 0.00 -- 45.0 26.0
04/29/2019 13:00 1294.86 126.0 0.00 -- 43.4 29.0
04/29/2019 12:00 1294.89 126.0 0.00 -- 41.1 31.0
04/29/2019 11:00 1294.91 128.0 0.00 -- 39.4 34.0
04/29/2019 10:00 1294.89 133.0 0.00 -- 37.3 42.0
04/29/2019 09:00 1294.90 130.0 0.00 -- 35.1 51.0
04/29/2019 08:00 1294.90 133.0 0.00 -- 27.5 98.0
04/29/2019 07:00 1294.91 134.0 0.00 -- 26.5 94.0
04/29/2019 06:00 1294.93 136.0 0.00 -- 26.8 95.0
04/29/2019 05:00 1294.94 138.0 0.00 -- 29.5 84.0
04/29/2019 04:00 1294.94 140.0 0.00 -- 32.8 69.0
04/29/2019 03:00 1294.96 142.0 0.00 -- 34.3 62.0
04/29/2019 02:00 1294.97 145.0 0.00 -- 34.9 66.0
04/29/2019 01:00 1294.98 148.0 0.00 -- 37.1 69.0
04/29/2019 00:00 1294.99 149.0 0.00 0.00 38.3 68.0
04/28/2019 23:00 1294.99 152.0 0.00 -- 40.4 72.0
04/28/2019 22:00 1295.00 153.0 0.00 -- 40.9 69.0
04/28/2019 21:00 1295.01 154.0 0.00 -- 41.9 66.0
04/28/2019 20:00 1295.01 156.0 0.00 -- 43.8 69.0
04/28/2019 19:00 1295.03 159.0 0.00 -- 42.5 75.0
04/28/2019 18:00 1295.03 161.0 0.00 -- 43.0 73.0
04/28/2019 17:00 1295.03 160.0 0.00 -- 44.4 60.0
04/28/2019 16:00 1295.03 163.0 0.00 -- 46.8 54.0
04/28/2019 15:00 1295.04 166.0 0.00 -- 45.8 54.0
04/28/2019 14:00 1295.05 160.0 0.00 -- 44.1 55.0
04/28/2019 13:00 1295.06 165.0 0.00 -- 43.6 56.0
04/28/2019 12:00 1295.05 166.0 0.00 -- 42.0 57.0
04/28/2019 11:00 1295.07 170.0 0.00 -- 40.6 60.0
04/28/2019 10:00 1295.06 168.0 0.00 -- 38.0 64.0
04/28/2019 09:00 1295.06 170.0 0.00 -- 36.2 73.0
04/28/2019 08:00 1295.05 169.0 0.00 -- 34.9 75.0
04/28/2019 07:00 1295.05 166.0 0.00 -- 33.6 79.0
04/28/2019 06:00 1295.05 165.0 0.00 -- 34.9 75.0
04/28/2019 05:00 1295.04 165.0 0.00 -- 35.5 75.0
04/28/2019 04:00 1295.03 165.0 0.00 -- 36.1 70.0
04/28/2019 03:00 1295.03 159.0 0.00 -- 35.6 76.0
04/28/2019 02:00 1295.01 158.0 0.00 -- 35.2 77.0
04/28/2019 01:00 1294.99 155.0 0.00 -- 35.3 73.0
04/28/2019 00:00 1294.97 151.0 0.00 0.00 35.5 66.0
04/27/2019 23:00 1294.95 148.0 0.00 -- 35.8 64.0
04/27/2019 22:00 1294.93 146.0 0.00 -- 36.1 62.0
04/27/2019 21:00 1294.91 138.0 0.00 -- 37.0 60.0
04/27/2019 20:00 1294.88 131.0 0.00 -- 37.8 56.0
04/27/2019 19:00 1294.83 128.0 0.00 -- 38.3 56.0
04/27/2019 18:00 1294.79 120.0 0.00 -- 38.0 61.0
04/27/2019 17:00 1294.75 116.0 0.00 -- 40.4 53.0
04/27/2019 16:00 1294.67 106.0 0.00 -- 39.8 58.0
04/27/2019 15:00 1294.65 100.0 0.00 -- 41.0 57.0
04/27/2019 14:00 1294.57 99.0 0.00 -- 39.4 63.0
04/27/2019 13:00 1294.51 95.0 0.00 -- 40.5 68.0
04/27/2019 12:00 1294.50 95.0 0.01 -- 37.6 86.0
04/27/2019 11:00 1294.43 92.0 0.00 -- 36.8 98.0
04/27/2019 10:00 1294.39 91.0 0.02 -- 37.6 99.0
04/27/2019 09:00 1294.32 88.0 0.05 -- 37.9 99.0
04/27/2019 08:00 1294.23 87.0 0.05 -- 38.7 100.0
04/27/2019 07:00 1294.15 85.0 0.02 -- 38.1 100.0
04/27/2019 06:00 1294.09 82.0 0.01 -- 37.4 100.0
04/27/2019 05:00 1294.03 79.0 0.01 -- 36.5 100.0
04/27/2019 04:00 1293.97 78.0 0.05 -- 35.9 100.0
04/27/2019 03:00 1293.89 76.0 0.11 -- 35.6 100.0
04/27/2019 02:00 1293.84 74.0 0.30 -- 35.4 100.0
04/27/2019 01:00 1293.79 73.0 0.34 -- 35.5 100.0
04/27/2019 00:00 1293.70 71.0 0.01 0.97 35.5 100.0
04/26/2019 23:00 1293.70 69.0 0.04 -- 36.0 100.0
04/26/2019 22:00 1293.69 68.0 0.15 -- 36.4 100.0
04/26/2019 21:00 1293.67 68.0 0.02 -- 36.8 100.0
04/26/2019 20:00 1293.65 68.0 0.00 -- 37.2 100.0
04/26/2019 19:00 1293.63 68.0 0.05 -- 38.5 100.0
04/26/2019 18:00 1293.62 67.0 0.24 -- 38.7 100.0
04/26/2019 17:00 1293.62 66.0 0.09 -- 39.9 100.0
04/26/2019 16:00 1293.61 66.0 0.01 -- 40.8 100.0
04/26/2019 15:00 1293.57 66.0 0.01 -- 41.5 100.0
04/26/2019 14:00 1293.61 65.0 0.00 -- 42.0 100.0
04/26/2019 13:00 1293.60 66.0 0.01 -- 41.8 100.0
04/26/2019 12:00 1293.59 66.0 0.03 -- 41.7 100.0
04/26/2019 11:00 1293.59 66.0 0.05 -- 41.3 100.0
04/26/2019 10:00 1293.58 66.0 0.02 -- 40.8 100.0
04/26/2019 09:00 1293.59 65.0 0.03 -- 40.0 100.0
04/26/2019 08:00 1293.59 65.0 0.01 -- 39.3 100.0
04/26/2019 07:00 1293.60 65.0 0.00 -- 39.4 100.0
04/26/2019 06:00 1293.59 66.0 0.00 -- 39.8 99.0
04/26/2019 05:00 1293.60 66.0 0.00 -- 40.5 94.0
04/26/2019 04:00 1293.60 66.0 0.00 -- 39.5 99.0
04/26/2019 03:00 1293.61 66.0 0.00 -- 39.1 99.0
04/26/2019 02:00 1293.60 66.0 0.00 -- 41.7 92.0
04/26/2019 01:00 1293.61 66.0 0.00 -- 43.5 92.0
04/26/2019 00:00 1293.61 66.0 0.00 0.77 43.4 93.0
04/25/2019 23:00 1293.61 66.0 0.00 -- 44.4 87.0
04/25/2019 22:00 1293.61 66.0 0.00 -- 46.6 79.0
04/25/2019 21:00 1293.61 66.0 0.00 -- 49.4 71.0
04/25/2019 20:00 1293.61 66.0 0.00 -- 56.4 53.0
04/25/2019 19:00 1293.61 -- 0.00 -- 56.8 49.5
04/25/2019 18:00 1293.61 -- 0.00 -- 57.2 46.0
04/25/2019 17:00 1293.60 -- 0.00 -- 57.6 42.5
04/25/2019 16:00 1293.60 -- 0.00 -- 58.0 39.0
04/25/2019 15:00 1293.61 66.0 0.00 -- 56.4 45.0
04/25/2019 14:00 1293.61 66.0 0.00 -- 52.4 48.0
04/25/2019 13:00 1293.62 66.0 0.00 -- 48.3 54.0
04/25/2019 12:00 1293.61 66.0 0.00 -- 45.0 60.0
04/25/2019 11:00 1293.62 66.0 0.00 -- 43.5 66.0
04/25/2019 10:00 1293.61 67.0 0.00 -- 41.8 70.0
04/25/2019 09:00 1293.61 66.0 0.00 -- 40.4 80.0
04/25/2019 08:00 1293.60 66.0 0.00 -- 34.1 99.0
04/25/2019 07:00 1293.60 66.0 0.00 -- 34.2 99.0
04/25/2019 06:00 1293.60 66.0 0.00 -- 38.7 84.0
04/25/2019 05:00 1293.60 66.0 0.00 -- 39.2 82.0
04/25/2019 04:00 1293.59 66.0 0.00 -- 38.3 87.0
04/25/2019 03:00 1293.58 66.0 0.00 -- 39.1 82.0
04/25/2019 02:00 1293.58 65.0 0.00 -- 39.0 86.0
04/25/2019 01:00 1293.58 65.0 0.00 -- 40.1 78.0
04/25/2019 00:00 1293.58 65.0 0.00 0.00 41.1 72.0
04/24/2019 23:00 1293.57 66.0 0.00 -- 42.2 68.0
04/24/2019 22:00 1293.56 65.0 0.00 -- 43.2 66.0
04/24/2019 21:00 1293.55 65.0 0.00 -- 44.2 67.0
04/24/2019 20:00 1293.57 64.0 0.00 -- 45.6 64.0
04/24/2019 19:00 1293.55 65.0 0.00 -- 47.3 63.0
04/24/2019 18:00 1293.54 65.0 0.00 -- 48.2 61.0
04/24/2019 17:00 1293.54 64.0 0.00 -- 47.8 63.0
04/24/2019 16:00 1293.52 63.0 0.00 -- 49.2 59.0
04/24/2019 15:00 1293.51 64.0 0.00 -- 49.6 56.0
04/24/2019 14:00 1293.51 63.0 0.00 -- 49.0 60.0
04/24/2019 13:00 1293.53 63.0 0.00 -- 48.9 57.0
04/24/2019 12:00 1293.49 62.0 0.00 -- 49.3 55.0
04/24/2019 11:00 1293.48 63.0 0.02 -- 47.4 63.0
04/24/2019 10:00 1293.44 195.0 0.00 -- 47.3 64.0
04/24/2019 09:00 1293.46 194.0 0.00 -- 46.0 80.0
04/24/2019 08:00 1293.47 196.0 0.00 -- 42.2 100.0
04/24/2019 07:00 1293.47 199.0 0.00 -- 41.9 100.0
04/24/2019 06:00 1293.48 198.0 0.00 -- 42.7 100.0
04/24/2019 05:00 1293.47 201.0 0.00 -- 42.7 100.0
04/24/2019 04:00 1293.46 199.0 0.01 -- 42.5 100.0
04/24/2019 03:00 1293.47 197.0 0.06 -- 43.7 100.0
04/24/2019 02:00 1293.47 197.0 0.05 -- 44.8 100.0
04/24/2019 01:00 1293.45 196.0 0.04 -- 45.8 100.0
04/24/2019 00:00 1293.45 195.0 0.01 0.18 47.3 100.0
04/23/2019 23:00 1293.45 193.0 0.00 -- 49.2 99.0
04/23/2019 22:00 1293.45 193.0 0.00 -- 50.4 97.0
04/23/2019 21:00 1293.45 194.0 0.00 -- 52.3 88.0
04/23/2019 20:00 1293.45 193.0 0.00 -- 56.3 75.0
04/23/2019 19:00 1293.45 193.0 0.00 -- 58.8 68.0
04/23/2019 18:00 1293.45 193.0 0.00 -- 61.7 63.0
04/23/2019 17:00 1293.45 192.0 0.00 -- 62.8 64.0
04/23/2019 16:00 1293.45 195.0 0.00 -- 59.2 71.0
04/23/2019 15:00 1293.46 194.0 0.00 -- 56.4 78.0
04/23/2019 14:00 1293.45 195.0 0.00 -- 52.2 93.0
04/23/2019 13:00 1293.45 191.0 0.00 -- 48.9 99.0
04/23/2019 12:00 1293.45 193.0 0.00 -- 48.7 99.0
04/23/2019 11:00 1293.45 193.0 0.00 -- 48.2 100.0
04/23/2019 10:00 1293.45 193.0 0.00 -- 47.6 100.0
04/23/2019 09:00 1293.44 193.0 0.01 -- 46.8 100.0
04/23/2019 08:00 1293.44 193.0 0.00 -- 46.9 100.0
04/23/2019 07:00 1293.44 195.0 0.00 -- 47.2 100.0
04/23/2019 06:00 1293.45 195.0 0.00 -- 47.4 100.0
04/23/2019 05:00 1293.46 192.0 0.02 -- 48.0 100.0
04/23/2019 04:00 1293.47 196.0 0.12 -- 48.4 100.0
04/23/2019 03:00 1293.45 198.0 0.04 -- 49.5 100.0
04/23/2019 02:00 1293.44 194.0 0.10 -- 50.2 100.0
04/23/2019 01:00 1293.44 190.0 0.03 -- 50.8 100.0
04/23/2019 00:00 1293.45 191.0 0.01 0.33 51.4 100.0
04/22/2019 23:00 1293.45 191.0 0.00 -- 52.0 100.0
04/22/2019 22:00 1293.44 192.0 0.01 -- 52.1 100.0
04/22/2019 21:00 1293.45 192.0 0.18 -- 52.4 100.0
04/22/2019 20:00 1293.44 192.0 0.05 -- 53.1 100.0
04/22/2019 19:00 1293.44 187.0 0.00 -- 55.2 99.0
04/22/2019 18:00 1293.42 191.0 0.00 -- 56.0 99.0
04/22/2019 17:00 1293.44 193.0 0.00 -- 61.1 61.0
04/22/2019 16:00 1293.47 193.0 0.00 -- 61.3 65.0
04/22/2019 15:00 1293.50 193.0 0.00 -- 63.2 59.0
04/22/2019 14:00 1293.49 200.0 0.00 -- 62.9 60.0
04/22/2019 13:00 1293.49 200.0 0.00 -- 62.0 64.0
04/22/2019 12:00 1293.49 206.0 0.00 -- 61.6 67.0
04/22/2019 11:00 1293.48 200.0 0.00 -- 57.5 77.0
04/22/2019 10:00 1293.47 202.0 0.00 -- 54.7 90.0
04/22/2019 09:00 1293.48 201.0 0.00 -- 47.1 100.0
04/22/2019 08:00 1293.49 200.0 0.00 -- 43.9 100.0
04/22/2019 07:00 1293.49 201.0 0.00 -- 43.6 100.0
04/22/2019 06:00 1293.49 202.0 0.00 -- 43.9 100.0
04/22/2019 05:00 1293.50 204.0 0.00 -- 42.7 100.0
04/22/2019 04:00 1293.50 204.0 0.00 -- 43.9 100.0
04/22/2019 03:00 1293.51 204.0 0.00 -- 45.5 100.0
04/22/2019 02:00 1293.51 206.0 0.00 -- 45.4 100.0
04/22/2019 01:00 1293.51 206.0 0.00 -- 46.6 100.0
04/22/2019 00:00 1293.50 208.0 0.00 0.25 47.6 100.0
04/21/2019 23:00 1293.51 205.0 0.00 -- 48.7 100.0
04/21/2019 22:00 1293.51 206.0 0.00 -- 49.9 100.0
04/21/2019 21:00 1293.52 205.0 0.00 -- 52.2 99.0
04/21/2019 20:00 1293.49 207.0 0.00 -- 57.5 75.0
04/21/2019 19:00 1293.50 205.0 0.00 -- 60.2 69.0
04/21/2019 18:00 1293.50 202.0 0.00 -- 60.8 68.0
04/21/2019 17:00 1293.51 205.0 0.00 -- 60.7 74.0
04/21/2019 16:00 1293.50 205.0 0.00 -- 59.7 77.0
04/21/2019 15:00 1293.51 205.0 0.00 -- 59.0 76.0
04/21/2019 14:00 1293.49 208.0 0.02 -- 57.7 84.0
04/21/2019 13:00 1293.50 205.0 0.01 -- 54.0 100.0
04/21/2019 12:00 1293.49 201.0 0.02 -- 53.9 93.0
04/21/2019 11:00 1293.49 201.0 0.01 -- 53.0 100.0
04/21/2019 10:00 1293.48 204.0 0.00 -- 51.5 100.0
04/21/2019 09:00 1293.48 199.0 0.00 -- 50.7 100.0
04/21/2019 08:00 1293.47 198.0 0.00 -- 49.0 100.0
04/21/2019 07:00 1293.47 196.0 0.00 -- 49.0 100.0
04/21/2019 06:00 1293.47 198.0 0.00 -- 49.7 100.0
04/21/2019 05:00 1293.45 197.0 0.00 -- 50.5 100.0
04/21/2019 04:00 1293.45 195.0 0.01 -- 51.0 100.0
04/21/2019 03:00 1293.43 193.0 0.03 -- 52.1 99.0
04/21/2019 02:00 1293.42 186.0 0.00 -- 55.2 87.0
04/21/2019 01:00 1293.40 185.0 0.00 -- 57.2 86.0
04/21/2019 00:00 1293.39 181.0 0.00 0.10 58.0 96.0
04/20/2019 23:00 1293.38 178.0 0.00 -- 59.7 94.0
04/20/2019 22:00 1293.39 175.0 0.00 -- 60.5 99.0
04/20/2019 21:00 1293.35 176.0 0.00 -- 61.2 95.0
04/20/2019 20:00 1293.34 173.0 0.00 -- 62.0 89.0
04/20/2019 19:00 1293.33 169.0 0.00 -- 62.2 90.0
04/20/2019 18:00 1293.29 165.0 0.01 -- 63.7 83.0
04/20/2019 17:00 1293.29 162.0 0.00 -- 62.5 100.0
04/20/2019 16:00 1293.29 159.0 0.00 -- 62.0 100.0
04/20/2019 15:00 1293.27 154.0 0.12 -- 61.4 100.0
04/20/2019 14:00 1293.26 159.0 0.17 -- 61.6 100.0
04/20/2019 13:00 1293.22 153.0 0.14 -- 60.1 100.0
04/20/2019 12:00 1293.18 157.0 0.36 -- 59.1 100.0
04/20/2019 11:00 1293.18 143.0 0.00 -- 61.1 100.0
04/20/2019 10:00 1293.16 145.0 0.00 -- 60.2 100.0
04/20/2019 09:00 1293.17 144.0 0.00 -- 60.2 100.0
04/20/2019 08:00 1293.17 144.0 0.01 -- 59.6 100.0
04/20/2019 07:00 1293.18 146.0 0.01 -- 60.4 100.0
04/20/2019 06:00 1293.20 142.0 0.01 -- 60.8 100.0
04/20/2019 05:00 1293.16 147.0 0.17 -- 61.1 100.0
04/20/2019 04:00 1293.17 145.0 0.03 -- 61.5 100.0
04/20/2019 03:00 1293.17 146.0 0.02 -- 61.4 100.0
04/20/2019 02:00 1293.19 144.0 0.13 -- 60.6 100.0
04/20/2019 01:00 1293.17 147.0 0.00 -- 61.8 99.0
04/20/2019 00:00 1293.14 143.0 0.00 1.18 62.3 94.0
04/19/2019 23:00 1293.18 142.0 0.00 -- 62.0 92.0
04/19/2019 22:00 1293.19 145.0 0.00 -- 62.2 87.0
04/19/2019 21:00 1293.21 144.0 0.00 -- 62.7 83.0
04/19/2019 20:00 1293.19 151.0 0.00 -- 64.5 76.0
04/19/2019 19:00 1293.19 148.0 0.00 -- 65.8 70.0
04/19/2019 18:00 1293.19 146.0 0.00 -- 68.1 64.0
04/19/2019 17:00 1293.19 149.0 0.00 -- 69.8 57.0
04/19/2019 16:00 1293.20 145.0 0.00 -- 69.8 58.0
04/19/2019 15:00 1293.18 150.0 0.00 -- 65.9 64.0
04/19/2019 14:00 1293.19 147.0 0.00 -- 63.7 73.0
04/19/2019 13:00 1293.22 146.0 0.00 -- 62.5 77.0
04/19/2019 12:00 -- -- -- -- 58.2 90.0
04/19/2019 11:00 -- -- -- -- 57.2 94.0
04/19/2019 10:00 -- -- -- -- 56.5 99.0
04/19/2019 09:00 -- -- -- -- 55.4 100.0
04/19/2019 08:00 -- -- -- -- 54.6 100.0
04/19/2019 07:00 -- -- -- -- 53.7 100.0
04/19/2019 06:00 -- -- -- -- 52.8 100.0
04/19/2019 05:00 -- -- -- -- 52.1 100.0
04/19/2019 04:00 -- -- -- -- 50.7 100.0
04/19/2019 03:00 -- -- -- -- 49.5 100.0
04/19/2019 02:00 -- -- -- -- 48.5 100.0
04/19/2019 01:00 -- -- -- -- 47.1 100.0
04/19/2019 00:00 -- -- -- 0.00 41.9 100.0